Latest Flight | Flight Log | Data Trends | Login | Join FlightData.com!
Date Range From To
Export: Google Earth
Flight Log - DEZCD - Click on row to view flight. Click on header to sort.
Date Origin Dest Depart Arrive Hobbs Flight Time Flight Distance Fuel Fuel/hr Fuel/nm Altitude Gnd Speed
Sun, Feb 16, 2020 EDFC EDFC 12:32 15:14 2.66 hrs 2.07 hrs 217.28 nm 25.20 gal 9.49 gal/hr 0.12 gal/nm 6411 msl 103 kts
Sun, Feb 16, 2020 EDFC EDFC 08:54 11:40 2.72 hrs 2.01 hrs 229.05 nm 24.18 gal 8.90 gal/hr 0.11 gal/nm 7013 msl 113 kts
Sun, Feb 16, 2020 EDFC EDFC 08:41 08:46 0.08 hrs 0.00 hrs 0.00 nm 0.18 gal 2.42 gal/hr 0.00 gal/nm 0 msl 0 kts
Sun, Feb 16, 2020     08:29 08:31 0.02 hrs 0.00 hrs 0.00 nm 25.23 gal 1164.46 gal/hr 0.00 gal/nm 0 msl 0 kts
Sat, Feb 15, 2020     15:39 15:39 0 hrs 0.00 hrs 0.00 nm 0.00 gal 0.00 gal/hr 0.00 gal/nm 0 msl 0 kts
Sat, Feb 15, 2020     15:38 15:39 0.02 hrs 0.00 hrs 0.00 nm 0.24 gal 16.00 gal/hr 0.00 gal/nm 0 msl 0 kts
Sat, Feb 15, 2020     15:12 15:12 0 hrs 0.00 hrs 0.00 nm 0.00 gal 0.00 gal/hr 0.00 gal/nm 0 msl 0 kts
Sat, Feb 15, 2020 EDFC EDFC 09:21 12:30 3.1 hrs 2.65 hrs 318.82 nm 31.74 gal 10.23 gal/hr 0.10 gal/nm 7296 msl 119 kts
Sat, Feb 15, 2020 EDFC EDFC 08:36 08:39 0.05 hrs 0.00 hrs 0.00 nm 0.15 gal 2.97 gal/hr 0.00 gal/nm 0 msl 0 kts
Fri, Feb 14, 2020 EDFC EDFC 16:08 17:11 1.04 hrs 0.61 hrs 72.08 nm 8.24 gal 7.91 gal/hr 0.11 gal/nm 3194 msl 117 kts
Fri, Feb 14, 2020     15:44 15:48 0.07 hrs 0.00 hrs 0.00 nm 26.03 gal 379.38 gal/hr 0.00 gal/nm 0 msl 0 kts
Sun, Feb 9, 2020 EDFC EDFC 11:12 13:06 1.87 hrs 1.45 hrs 162.51 nm 16.70 gal 8.95 gal/hr 0.10 gal/nm 4842 msl 110 kts
Sun, Feb 9, 2020     11:02 11:03 0.02 hrs 0.00 hrs 0.00 nm 1.16 gal 74.57 gal/hr 0.00 gal/nm 0 msl 0 kts
Sat, Feb 8, 2020 EDFC EDFC 15:38 15:41 0.05 hrs 0.00 hrs 0.00 nm 0.14 gal 2.64 gal/hr 0.00 gal/nm 0 msl 0 kts
Sat, Feb 8, 2020 ETEU EDFC 10:59 11:59 0.99 hrs 0.84 hrs 91.80 nm 9.43 gal 9.50 gal/hr 0.10 gal/nm 3581 msl 108 kts
Sat, Feb 8, 2020 ETEU ETEU 10:51 10:58 0.12 hrs 0.00 hrs 0.00 nm 0.22 gal 1.91 gal/hr 0.00 gal/nm 0 msl 0 kts
Sat, Feb 8, 2020 EDFC ETEU 09:35 10:44 1.14 hrs 0.81 hrs 94.07 nm 8.97 gal 7.90 gal/hr 0.10 gal/nm 4783 msl 115 kts
Sat, Feb 8, 2020     09:20 09:20 0.01 hrs 0.00 hrs 0.00 nm 32.92 gal 3703.50 gal/hr 0.00 gal/nm 0 msl 0 kts
Fri, Feb 7, 2020 EDRY EDFC 17:59 18:40 0.67 hrs 0.54 hrs 66.24 nm 5.98 gal 8.89 gal/hr 0.09 gal/nm 3412 msl 121 kts
Fri, Feb 7, 2020 EDFC EDRY 16:28 17:57 1.46 hrs 0.97 hrs 97.83 nm 11.97 gal 8.21 gal/hr 0.12 gal/nm 3673 msl 100 kts
Fri, Feb 7, 2020 EDFC EDFC 16:16 16:20 0.07 hrs 0.00 hrs 0.00 nm 0.15 gal 2.24 gal/hr 0.00 gal/nm 0 msl 0 kts
Fri, Feb 7, 2020     16:07 16:09 0.03 hrs 0.00 hrs 0.00 nm 0.44 gal 13.89 gal/hr 0.00 gal/nm 0 msl 0 kts
Fri, Feb 7, 2020 EDFC EDFC 14:23 15:09 0.76 hrs 0.59 hrs 79.29 nm 8.87 gal 11.65 gal/hr 0.11 gal/nm 6469 msl 132 kts
Fri, Feb 7, 2020 EDFC EDFC 14:06 14:17 0.19 hrs 0.00 hrs 0.00 nm 0.44 gal 2.39 gal/hr 0.00 gal/nm 0 msl 0 kts
Fri, Feb 7, 2020 EDFC EDFC 13:51 13:52 0.01 hrs 0.00 hrs 0.00 nm 12.09 gal 989.18 gal/hr 0.00 gal/nm 0 msl 0 kts
Fri, Feb 7, 2020 EDFC EDFC 08:42 10:56 2.2 hrs 1.40 hrs 176.16 nm 17.39 gal 7.91 gal/hr 0.10 gal/nm 5016 msl 124 kts
Fri, Feb 7, 2020     08:14 08:14 0.01 hrs 0.00 hrs 0.00 nm 22.29 gal 2507.62 gal/hr 0.00 gal/nm 0 msl 0 kts
Fri, Feb 7, 2020     07:55 07:56 0.01 hrs 0.00 hrs 0.00 nm 0.07 gal 7.41 gal/hr 0.00 gal/nm 0 msl 0 kts
Thu, Feb 6, 2020 EDFC EDFC 13:57 16:30 2.51 hrs 1.99 hrs 253.01 nm 24.64 gal 9.82 gal/hr 0.10 gal/nm 6535 msl 125 kts
Thu, Feb 6, 2020 EDFC EDFC 12:47 12:49 0.03 hrs 0.00 hrs 0.00 nm 0.15 gal 5.29 gal/hr 0.00 gal/nm 0 msl 0 kts
Thu, Feb 6, 2020     09:34 09:36 0.02 hrs 0.00 hrs 0.00 nm 0.07 gal 3.43 gal/hr 0.00 gal/nm 0 msl 0 kts
Thu, Feb 6, 2020 EDFC EDFC 08:03 09:22 1.31 hrs 1.02 hrs 129.55 nm 13.24 gal 10.15 gal/hr 0.10 gal/nm 3787 msl 125 kts
Thu, Feb 6, 2020     07:57 07:58 0.02 hrs 0.00 hrs 0.00 nm 0.66 gal 44.00 gal/hr 0.00 gal/nm 0 msl 0 kts
Wed, Feb 5, 2020 ETEU EDFC 16:20 16:54 0.56 hrs 0.38 hrs 47.23 nm 4.73 gal 8.46 gal/hr 0.10 gal/nm 5253 msl 123 kts
Wed, Feb 5, 2020 EDFC ETEU 13:35 15:54 2.29 hrs 1.82 hrs 197.65 nm 20.53 gal 8.97 gal/hr 0.10 gal/nm 8146 msl 107 kts
Wed, Feb 5, 2020 EDFC EDFC 13:20 13:26 0.11 hrs 0.00 hrs 0.00 nm 0.21 gal 1.96 gal/hr 0.00 gal/nm 0 msl 0 kts
Wed, Feb 5, 2020 EDFC EDFC 08:59 11:47 2.75 hrs 2.07 hrs 257.48 nm 24.87 gal 9.05 gal/hr 0.10 gal/nm 5106 msl 123 kts
Wed, Feb 5, 2020     08:36 08:36 0.01 hrs 0.00 hrs 0.00 nm 0.03 gal 3.48 gal/hr 0.00 gal/nm 0 msl 0 kts
Wed, Feb 5, 2020     08:27 08:29 0.04 hrs 0.00 hrs 0.00 nm 37.02 gal 1049.39 gal/hr 0.00 gal/nm 0 msl 0 kts
Mon, Feb 3, 2020     12:48 12:50 0.03 hrs 0.00 hrs 0.00 nm 39.51 gal 1215.69 gal/hr 0.00 gal/nm 0 msl 0 kts
Fri, Jan 31, 2020 ETEU EDFC 14:11 14:56 0.74 hrs 0.57 hrs 59.44 nm 6.85 gal 9.31 gal/hr 0.12 gal/nm 2764 msl 103 kts
Fri, Jan 31, 2020 EDFC ETEU 11:53 13:33 1.63 hrs 0.84 hrs 102.01 nm 11.80 gal 7.23 gal/hr 0.12 gal/nm 2933 msl 119 kts
Fri, Jan 31, 2020     11:40 11:41 0.03 hrs 0.00 hrs 0.00 nm 45.69 gal 1768.65 gal/hr 0.00 gal/nm 0 msl 0 kts
Thu, Jan 30, 2020 EDFC EDFC 11:58 12:33 0.58 hrs 0.00 hrs 0.00 nm 0.00 gal 0.00 gal/hr 0.00 gal/nm 0 msl 0 kts
Thu, Jan 30, 2020     11:57 11:57 0.01 hrs 0.00 hrs 0.00 nm 0.00 gal 0.00 gal/hr 0.00 gal/nm 0 msl 0 kts
Thu, Jan 30, 2020 EDFC EDFC 11:33 11:36 0.05 hrs 0.00 hrs 0.00 nm 0.15 gal 3.08 gal/hr 0.00 gal/nm 0 msl 0 kts
Thu, Jan 30, 2020     09:32 09:32 0.01 hrs 0.00 hrs 0.00 nm 0.01 gal 0.84 gal/hr 0.00 gal/nm 0 msl 0 kts
Thu, Jan 30, 2020 EDFC EDFC 09:15 09:19 0.06 hrs 0.00 hrs 0.00 nm 0.23 gal 4.18 gal/hr 0.00 gal/nm 0 msl 0 kts
Thu, Jan 23, 2020 EDFC EDFC 10:19 11:38 1.3 hrs 0.87 hrs 114.03 nm 11.70 gal 8.98 gal/hr 0.10 gal/nm 6098 msl 129 kts
Thu, Jan 23, 2020     10:07 10:08 0.02 hrs 0.00 hrs 0.00 nm 33.72 gal 1480.39 gal/hr 0.00 gal/nm 0 msl 0 kts
Wed, Jan 22, 2020     13:02 13:02 0.01 hrs 0.00 hrs 0.00 nm 0.01 gal 2.00 gal/hr 0.00 gal/nm 0 msl 0 kts
Wed, Jan 22, 2020     13:01 13:02 0.02 hrs 0.00 hrs 0.00 nm 0.10 gal 5.54 gal/hr 0.00 gal/nm 0 msl 0 kts
Tue, Jan 21, 2020 EDFC EDFC 12:42 14:23 1.65 hrs 1.31 hrs 170.43 nm 17.63 gal 10.72 gal/hr 0.10 gal/nm 5067 msl 128 kts
Tue, Jan 21, 2020 EDFC EDFC 12:06 12:09 0.06 hrs 0.00 hrs 0.00 nm 0.19 gal 3.37 gal/hr 0.00 gal/nm 0 msl 0 kts
Sun, Jan 19, 2020     15:55 15:55 0 hrs 0.00 hrs 0.00 nm 0.00 gal 0.00 gal/hr 0.00 gal/nm 0 msl 0 kts
Sun, Jan 19, 2020     14:02 14:14 0.19 hrs 0.00 hrs 0.00 nm 0.12 gal 0.62 gal/hr 0.00 gal/nm 0 msl 0 kts
Thu, Jan 16, 2020 ETEU EDFC 12:10 13:15 1.08 hrs 0.74 hrs 84.67 nm 9.22 gal 8.57 gal/hr 0.11 gal/nm 4725 msl 112 kts
Thu, Jan 16, 2020 EDFC ETEU 09:37 11:31 1.86 hrs 1.19 hrs 146.00 nm 14.11 gal 7.61 gal/hr 0.10 gal/nm 6072 msl 121 kts
Thu, Jan 16, 2020 EDFC EDFC 09:27 09:30 0.05 hrs 0.00 hrs 0.00 nm 42.59 gal 876.14 gal/hr 0.00 gal/nm 0 msl 0 kts
Wed, Jan 15, 2020 EDFM EDFC 17:16 17:55 0.65 hrs 0.41 hrs 61.24 nm 5.60 gal 8.67 gal/hr 0.09 gal/nm 3665 msl 147 kts
Wed, Jan 15, 2020 EDFC EDFM 16:21 17:04 0.71 hrs 0.42 hrs 45.03 nm 5.78 gal 8.16 gal/hr 0.13 gal/nm 3080 msl 105 kts
Wed, Jan 15, 2020 EDFC EDFC 16:09 16:14 0.08 hrs 0.00 hrs 0.00 nm 0.21 gal 2.62 gal/hr 0.00 gal/nm 0 msl 0 kts
Wed, Jan 15, 2020     16:02 16:02 0.01 hrs 0.00 hrs 0.00 nm 21.93 gal 2467.12 gal/hr 0.00 gal/nm 0 msl 0 kts
Wed, Jan 15, 2020     13:52 13:52 0 hrs 0.00 hrs 0.00 nm 0.04 gal 24.00 gal/hr 0.00 gal/nm 0 msl 0 kts
Wed, Jan 15, 2020 ETEU EDFC 12:52 13:50 0.95 hrs 0.48 hrs 56.03 nm 6.54 gal 6.85 gal/hr 0.12 gal/nm 5012 msl 115 kts
Wed, Jan 15, 2020 ETEU ETEU 12:18 12:19 0.03 hrs 0.00 hrs 0.00 nm 0.74 gal 28.96 gal/hr 0.00 gal/nm 0 msl 0 kts
Wed, Jan 15, 2020 EDFC ETEU 09:42 12:16 2.52 hrs 1.64 hrs 199.73 nm 20.40 gal 8.09 gal/hr 0.10 gal/nm 5065 msl 120 kts
Wed, Jan 15, 2020 EDFC EDFC 09:25 09:32 0.11 hrs 0.00 hrs 0.00 nm 0.32 gal 2.95 gal/hr 0.00 gal/nm 0 msl 0 kts
Wed, Jan 15, 2020     09:06 09:08 0.04 hrs 0.00 hrs 0.00 nm 26.84 gal 754.87 gal/hr 0.00 gal/nm 0 msl 0 kts
Tue, Jan 14, 2020 EDFC EDFC 08:38 11:24 2.72 hrs 2.40 hrs 301.31 nm 29.31 gal 10.77 gal/hr 0.10 gal/nm 6015 msl 124 kts
Tue, Jan 14, 2020 EDFC EDFC 08:28 08:32 0.07 hrs 0.00 hrs 0.00 nm 0.18 gal 2.74 gal/hr 0.00 gal/nm 0 msl 0 kts
Tue, Jan 14, 2020     08:22 08:24 0.03 hrs 0.00 hrs 0.00 nm 36.56 gal 1144.49 gal/hr 0.00 gal/nm 0 msl 0 kts
Tue, Jan 14, 2020     07:42 07:45 0.05 hrs 0.00 hrs 0.00 nm 36.36 gal 699.98 gal/hr 0.00 gal/nm 0 msl 0 kts
Fri, Jan 3, 2020     10:41 11:38 0.95 hrs 0.00 hrs 0.00 nm 37.19 gal 39.32 gal/hr 0.00 gal/nm 0 msl 0 kts
Sat, Dec 28, 2019 EDPA EDFC 12:58 13:49 0.85 hrs 0.65 hrs 91.40 nm 9.25 gal 10.94 gal/hr 0.10 gal/nm 6013 msl 139 kts
Sat, Dec 28, 2019 EDFC EDPA 11:01 11:51 0.83 hrs 0.70 hrs 87.53 nm 9.44 gal 11.40 gal/hr 0.11 gal/nm 3521 msl 124 kts
Sat, Dec 28, 2019     10:55 10:55 0.01 hrs 0.00 hrs 0.00 nm 0.00 gal 0.00 gal/hr 0.00 gal/nm 0 msl 0 kts
Sat, Dec 28, 2019 EDFC EDFC 10:48 10:52 0.07 hrs 0.00 hrs 0.00 nm 12.50 gal 182.93 gal/hr 0.00 gal/nm 0 msl 0 kts
Sat, Dec 28, 2019     10:46 10:47 0.02 hrs 0.00 hrs 0.00 nm 0.08 gal 4.36 gal/hr 0.00 gal/nm 0 msl 0 kts
Sat, Dec 28, 2019 EDFC EDFC 10:27 10:40 0.22 hrs 0.00 hrs 0.00 nm 0.68 gal 3.16 gal/hr 0.00 gal/nm 0 msl 0 kts
Fri, Dec 27, 2019     11:21 11:22 0.02 hrs 0.00 hrs 0.00 nm 0.06 gal 3.09 gal/hr 0.00 gal/nm 0 msl 0 kts
Fri, Dec 27, 2019     11:17 11:21 0.06 hrs 0.00 hrs 0.00 nm 0.53 gal 9.00 gal/hr 0.00 gal/nm 0 msl 0 kts
Fri, Dec 27, 2019     11:15 11:17 0.04 hrs 0.00 hrs 0.00 nm 0.30 gal 8.57 gal/hr 0.00 gal/nm 0 msl 0 kts
Fri, Dec 20, 2019 EDFC EDFC 09:30 11:51 2.3 hrs 1.95 hrs 242.30 nm 23.10 gal 10.02 gal/hr 0.10 gal/nm 5079 msl 123 kts
Fri, Dec 20, 2019     09:24 09:25 0.02 hrs 0.00 hrs 0.00 nm 46.13 gal 2102.13 gal/hr 0.00 gal/nm 0 msl 0 kts
Thu, Dec 19, 2019 EDFC EDFC 15:19 15:22 0.05 hrs 0.00 hrs 0.00 nm 0.14 gal 2.73 gal/hr 0.00 gal/nm 0 msl 0 kts
Thu, Dec 19, 2019 EDAZ EDFC 13:18 15:05 1.76 hrs 1.51 hrs 213.45 nm 20.35 gal 11.59 gal/hr 0.10 gal/nm 8511 msl 139 kts
Thu, Dec 19, 2019 EDAZ EDAZ 12:59 13:01 0.03 hrs 0.00 hrs 0.00 nm 0.09 gal 2.71 gal/hr 0.00 gal/nm 0 msl 0 kts
Mon, Dec 16, 2019 EDAZ EDAZ 07:21 07:41 0.33 hrs 0.00 hrs 0.00 nm 1.60 gal 4.92 gal/hr 0.00 gal/nm 0 msl 0 kts
Mon, Dec 16, 2019 EDAZ EDAZ 07:14 07:16 0.03 hrs 0.00 hrs 0.00 nm 0.06 gal 1.86 gal/hr 0.00 gal/nm 0 msl 0 kts
Mon, Dec 16, 2019 EDAZ EDAZ 07:13 07:14 0.02 hrs 0.00 hrs 0.00 nm 22.80 gal 1492.36 gal/hr 0.00 gal/nm 0 msl 0 kts
Mon, Dec 16, 2019 EDAZ EDAZ 07:10 07:11 0.02 hrs 0.00 hrs 0.02 nm 23.50 gal 1070.89 gal/hr 1175.00 gal/nm 213 msl 90 kts
Mon, Dec 16, 2019     07:08 07:08 0.01 hrs 0.00 hrs 0.00 nm 0.06 gal 12.00 gal/hr 0.00 gal/nm 0 msl 0 kts
Mon, Dec 16, 2019 EDAZ EDAZ 06:44 06:47 0.05 hrs 0.00 hrs 0.00 nm 0.23 gal 4.81 gal/hr 0.00 gal/nm 0 msl 0 kts
Fri, Dec 13, 2019 EDAZ EDAZ 12:20 13:37 1.27 hrs 0.12 hrs 0.00 nm 0.56 gal 0.44 gal/hr 0.00 gal/nm 982 msl 0 kts
Fri, Dec 13, 2019 EDAZ EDAZ 11:46 11:51 0.08 hrs 0.00 hrs 0.00 nm 0.04 gal 0.53 gal/hr 0.00 gal/nm 0 msl 0 kts
Fri, Dec 13, 2019 EDAZ EDAZ 11:23 11:30 0.12 hrs 0.00 hrs 0.20 nm 0.16 gal 1.34 gal/hr 0.80 gal/nm 847 msl 120 kts
Fri, Dec 13, 2019 EDAZ EDAZ 10:46 11:23 0.6 hrs 0.00 hrs 0.15 nm 0.33 gal 0.55 gal/hr 2.20 gal/nm 840 msl 67 kts
Thu, Dec 12, 2019     14:00 14:00 0 hrs 0.00 hrs 0.00 nm 0.00 gal 0.00 gal/hr 0.00 gal/nm 0 msl 0 kts
Wed, Dec 11, 2019     16:07 16:08 0.01 hrs 0.00 hrs 0.00 nm 0.22 gal 15.84 gal/hr 0.00 gal/nm 0 msl 0 kts
Wed, Dec 11, 2019 EDAZ EDAZ 15:24 15:44 0.32 hrs 0.00 hrs 0.00 nm 1.70 gal 5.23 gal/hr 0.00 gal/nm 0 msl 0 kts
Tue, Dec 10, 2019 EDVK EDAZ 12:10 15:15 3.03 hrs 2.60 hrs 353.21 nm 31.43 gal 10.38 gal/hr 0.09 gal/nm 8044 msl 134 kts
Tue, Dec 10, 2019 EDVK EDVK 11:43 11:48 0.09 hrs 0.00 hrs 0.00 nm 0.23 gal 2.46 gal/hr 0.00 gal/nm 0 msl 0 kts
Tue, Dec 10, 2019 EDVK EDVK 11:31 11:33 0.02 hrs 0.00 hrs 0.00 nm 15.27 gal 723.32 gal/hr 0.00 gal/nm 0 msl 0 kts
Thu, Dec 5, 2019 EDDE EDVK 16:44 18:00 1.24 hrs 0.95 hrs 120.83 nm 11.58 gal 9.35 gal/hr 0.10 gal/nm 9011 msl 126 kts
Thu, Dec 5, 2019 EDDE EDDE 13:29 15:36 2.09 hrs 1.64 hrs 215.05 nm 20.45 gal 9.80 gal/hr 0.10 gal/nm 6003 msl 129 kts
Thu, Dec 5, 2019 EDFC EDDE 11:35 12:51 1.23 hrs 0.85 hrs 122.63 nm 11.20 gal 9.08 gal/hr 0.09 gal/nm 7010 msl 142 kts
Thu, Dec 5, 2019 EDFC EDFC 11:21 11:29 0.12 hrs 0.00 hrs 0.00 nm 0.26 gal 2.09 gal/hr 0.00 gal/nm 0 msl 0 kts
Thu, Dec 5, 2019     11:02 11:03 0.02 hrs 0.00 hrs 0.00 nm 35.91 gal 1701.00 gal/hr 0.00 gal/nm 0 msl 0 kts
Thu, Dec 5, 2019     11:00 11:01 0.01 hrs 0.00 hrs 0.00 nm 0.17 gal 17.00 gal/hr 0.00 gal/nm 0 msl 0 kts
Wed, Dec 4, 2019 EDFC EDFC 18:11 20:12 1.98 hrs 1.23 hrs 147.13 nm 16.40 gal 8.29 gal/hr 0.11 gal/nm 3415 msl 117 kts
Wed, Dec 4, 2019 EDFC EDFC 15:21 18:00 2.62 hrs 1.87 hrs 239.13 nm 23.82 gal 9.10 gal/hr 0.10 gal/nm 7009 msl 126 kts
Wed, Dec 4, 2019 EDFC EDFC 12:32 14:56 2.37 hrs 2.05 hrs 273.48 nm 25.47 gal 10.76 gal/hr 0.09 gal/nm 8016 msl 132 kts
Wed, Dec 4, 2019     10:37 10:38 0.01 hrs 0.00 hrs 0.00 nm 0.10 gal 7.20 gal/hr 0.00 gal/nm 0 msl 0 kts
Mon, Dec 2, 2019     17:33 17:34 0.01 hrs 0.00 hrs 0.00 nm 0.02 gal 1.41 gal/hr 0.00 gal/nm 0 msl 0 kts
Mon, Dec 2, 2019     17:31 17:32 0.02 hrs 0.00 hrs 0.00 nm 0.49 gal 28.00 gal/hr 0.00 gal/nm 0 msl 0 kts
Mon, Dec 2, 2019 ETEU EDFC 15:46 16:48 1.01 hrs 0.87 hrs 101.10 nm 9.87 gal 9.81 gal/hr 0.10 gal/nm 5030 msl 115 kts
Mon, Dec 2, 2019 ETEU ETEU 15:32 15:46 0.22 hrs 0.00 hrs 0.00 nm 0.65 gal 2.94 gal/hr 0.00 gal/nm 0 msl 0 kts
Mon, Dec 2, 2019 EDFC ETEU 12:40 14:50 2.14 hrs 1.75 hrs 216.08 nm 20.67 gal 9.67 gal/hr 0.10 gal/nm 3609 msl 122 kts
Mon, Dec 2, 2019 EDFC EDFC 12:15 12:17 0.05 hrs 0.00 hrs 0.00 nm 28.50 gal 589.66 gal/hr 0.00 gal/nm 0 msl 0 kts
Fri, Nov 29, 2019 EDFC EDFC 15:03 17:19 2.24 hrs 1.87 hrs 234.93 nm 21.70 gal 9.69 gal/hr 0.09 gal/nm 5190 msl 124 kts
Fri, Nov 29, 2019 EDFC EDFC 14:42 14:46 0.06 hrs 0.00 hrs 0.00 nm 33.83 gal 531.83 gal/hr 0.00 gal/nm 0 msl 0 kts
Mon, Nov 25, 2019     14:31 14:33 0.03 hrs 0.00 hrs 0.00 nm 0.04 gal 1.22 gal/hr 0.00 gal/nm 0 msl 0 kts
Sun, Nov 24, 2019 EDFC EDFC 16:04 16:08 0.07 hrs 0.00 hrs 0.00 nm 0.15 gal 2.26 gal/hr 0.00 gal/nm 0 msl 0 kts
Sun, Nov 24, 2019 EDFC EDFC 14:47 15:59 1.18 hrs 0.92 hrs 125.80 nm 11.63 gal 9.84 gal/hr 0.09 gal/nm 4116 msl 135 kts
Sun, Nov 24, 2019 EDFC EDFC 14:31 14:39 0.14 hrs 0.00 hrs 0.00 nm 0.42 gal 3.04 gal/hr 0.00 gal/nm 0 msl 0 kts
Sun, Nov 24, 2019     14:21 14:22 0.02 hrs 0.00 hrs 0.00 nm 22.93 gal 1058.31 gal/hr 0.00 gal/nm 0 msl 0 kts
Sat, Nov 23, 2019 EDMK EDFC 14:50 16:05 1.21 hrs 1.10 hrs 177.87 nm 15.03 gal 12.37 gal/hr 0.08 gal/nm 8013 msl 160 kts
Sat, Nov 23, 2019 EDFC EDMK 12:12 13:46 1.54 hrs 1.39 hrs 166.09 nm 19.02 gal 12.34 gal/hr 0.11 gal/nm 4527 msl 118 kts
Sat, Nov 23, 2019 EDFC EDFC 11:57 12:02 0.08 hrs 0.00 hrs 0.00 nm 0.33 gal 4.04 gal/hr 0.00 gal/nm 0 msl 0 kts
Thu, Nov 21, 2019 EDVK EDFC 15:44 17:04 1.31 hrs 0.82 hrs 111.28 nm 11.56 gal 8.82 gal/hr 0.10 gal/nm 7012 msl 134 kts
Thu, Nov 21, 2019 EDFC EDVK 13:07 14:45 1.6 hrs 1.23 hrs 164.07 nm 15.27 gal 9.54 gal/hr 0.09 gal/nm 7047 msl 131 kts
Thu, Nov 21, 2019 EDFC EDFC 12:52 13:00 0.14 hrs 0.00 hrs 0.00 nm 0.28 gal 2.00 gal/hr 0.00 gal/nm 0 msl 0 kts
Thu, Nov 21, 2019     12:47 12:48 0.02 hrs 0.00 hrs 0.00 nm 0.43 gal 19.85 gal/hr 0.00 gal/nm 0 msl 0 kts
Thu, Nov 21, 2019     12:33 12:35 0.03 hrs 0.00 hrs 0.00 nm 0.15 gal 4.62 gal/hr 0.00 gal/nm 0 msl 0 kts
Thu, Nov 21, 2019     12:31 12:32 0.01 hrs 0.00 hrs 0.00 nm 39.46 gal 2841.12 gal/hr 0.00 gal/nm 0 msl 0 kts
Wed, Nov 20, 2019 EDFC EDFC 16:24 17:30 1.08 hrs 0.78 hrs 97.18 nm 9.51 gal 8.81 gal/hr 0.10 gal/nm 3413 msl 122 kts
Wed, Nov 20, 2019     15:50 15:51 0.02 hrs 0.00 hrs 0.00 nm 40.44 gal 1866.46 gal/hr 0.00 gal/nm 0 msl 0 kts
Wed, Nov 20, 2019     12:55 12:57 0.03 hrs 0.00 hrs 0.00 nm 0.00 gal 0.00 gal/hr 0.00 gal/nm 0 msl 0 kts
Wed, Nov 20, 2019     12:54 12:54 0.01 hrs 0.00 hrs 0.00 nm 0.00 gal 0.00 gal/hr 0.00 gal/nm 0 msl 0 kts
Wed, Nov 20, 2019     12:52 12:53 0.01 hrs 0.00 hrs 0.00 nm 0.01 gal 0.68 gal/hr 0.00 gal/nm 0 msl 0 kts
Wed, Nov 20, 2019     12:50 12:51 0.01 hrs 0.00 hrs 0.00 nm 0.14 gal 10.08 gal/hr 0.00 gal/nm 0 msl 0 kts
Fri, Nov 15, 2019 EDFC EDFC 20:41 20:44 0.05 hrs 0.00 hrs 0.00 nm 0.13 gal 2.54 gal/hr 0.00 gal/nm 0 msl 0 kts
Fri, Nov 15, 2019 EDRY EDFC 19:35 20:26 0.84 hrs 0.55 hrs 70.63 nm 7.53 gal 8.92 gal/hr 0.11 gal/nm 3018 msl 126 kts
Fri, Nov 15, 2019 EDFC EDRY 18:30 19:17 0.78 hrs 0.48 hrs 60.03 nm 6.47 gal 8.26 gal/hr 0.11 gal/nm 3020 msl 124 kts
Fri, Nov 15, 2019     17:58 17:59 0.02 hrs 0.00 hrs 0.00 nm 0.07 gal 3.15 gal/hr 0.00 gal/nm 0 msl 0 kts
Fri, Nov 15, 2019 EDFC EDFC 17:49 17:53 0.06 hrs 0.00 hrs 0.00 nm 0.16 gal 2.66 gal/hr 0.00 gal/nm 0 msl 0 kts
Fri, Nov 15, 2019     17:43 17:44 0.02 hrs 0.00 hrs 0.00 nm 0.22 gal 12.77 gal/hr 0.00 gal/nm 0 msl 0 kts
Thu, Nov 14, 2019     19:30 20:46 1.25 hrs 0.00 hrs 0.00 nm 0.00 gal 0.00 gal/hr 0.00 gal/nm 0 msl 0 kts
Thu, Nov 14, 2019     19:27 19:30 0.05 hrs 0.00 hrs 0.00 nm 1.78 gal 37.04 gal/hr 0.00 gal/nm 0 msl 0 kts
Thu, Nov 14, 2019 EDDE EDFC 16:35 17:47 1.19 hrs 0.85 hrs 117.48 nm 11.04 gal 9.31 gal/hr 0.09 gal/nm 8009 msl 136 kts
Thu, Nov 14, 2019 ETEU EDDE 14:51 15:52 1 hrs 0.74 hrs 102.93 nm 9.67 gal 9.63 gal/hr 0.09 gal/nm 7015 msl 137 kts
Thu, Nov 14, 2019 EDFC ETEU 10:59 13:16 2.25 hrs 1.99 hrs 248.92 nm 23.75 gal 10.54 gal/hr 0.10 gal/nm 6031 msl 123 kts
Thu, Nov 14, 2019 EDFC EDFC 10:43 10:50 0.12 hrs 0.00 hrs 0.00 nm 0.29 gal 2.33 gal/hr 0.00 gal/nm 0 msl 0 kts
Thu, Nov 14, 2019     10:22 10:25 0.05 hrs 0.00 hrs 0.00 nm 29.59 gal 566.62 gal/hr 0.00 gal/nm 0 msl 0 kts
Tue, Nov 12, 2019     19:37 19:38 0.02 hrs 0.00 hrs 0.00 nm 0.26 gal 14.62 gal/hr 0.00 gal/nm 0 msl 0 kts
Fri, Nov 8, 2019     09:51 09:51 0.01 hrs 0.00 hrs 0.00 nm 0.01 gal 1.57 gal/hr 0.00 gal/nm 0 msl 0 kts
Thu, Nov 7, 2019     16:35 16:38 0.06 hrs 0.00 hrs 0.00 nm 0.04 gal 0.72 gal/hr 0.00 gal/nm 0 msl 0 kts
Thu, Nov 7, 2019 EDFC EDFC 16:12 16:20 0.13 hrs 0.00 hrs 0.00 nm 0.64 gal 4.88 gal/hr 0.00 gal/nm 0 msl 0 kts
Wed, Nov 6, 2019 ETHN EDFC 13:25 14:55 1.47 hrs 1.03 hrs 119.91 nm 13.19 gal 8.98 gal/hr 0.11 gal/nm 5287 msl 115 kts
Wed, Nov 6, 2019 ETHN ETHN 13:00 13:07 0.12 hrs 0.00 hrs 0.00 nm 0.24 gal 2.08 gal/hr 0.00 gal/nm 0 msl 0 kts
Wed, Nov 6, 2019 EDFC ETHN 11:29 12:28 0.96 hrs 0.74 hrs 88.51 nm 9.50 gal 9.85 gal/hr 0.11 gal/nm 5027 msl 119 kts
Wed, Nov 6, 2019 EDFC EDFC 11:03 11:21 0.29 hrs 0.00 hrs 0.00 nm 0.81 gal 2.78 gal/hr 0.00 gal/nm 0 msl 0 kts
Wed, Nov 6, 2019     10:05 10:07 0.04 hrs 0.00 hrs 0.00 nm 50.39 gal 1126.73 gal/hr 0.00 gal/nm 0 msl 0 kts
Sat, Nov 2, 2019 EDFC EDFC 16:49 16:58 0.14 hrs 0.00 hrs 0.00 nm 0.15 gal 1.03 gal/hr 0.00 gal/nm 0 msl 0 kts
Sat, Nov 2, 2019 EDFC EDFC 16:41 16:45 0.07 hrs 0.00 hrs 0.00 nm 0.18 gal 2.71 gal/hr 0.00 gal/nm 0 msl 0 kts
Sat, Nov 2, 2019 EDFC EDFC 12:34 12:47 0.21 hrs 0.00 hrs 0.00 nm 0.50 gal 2.33 gal/hr 0.00 gal/nm 0 msl 0 kts
Fri, Nov 1, 2019     18:04 18:04 0 hrs 0.00 hrs 0.00 nm 0.00 gal 0.00 gal/hr 0.00 gal/nm 0 msl 0 kts
Fri, Nov 1, 2019     17:44 18:03 0.3 hrs 0.00 hrs 0.00 nm 0.36 gal 1.19 gal/hr 0.00 gal/nm 0 msl 0 kts
Fri, Nov 1, 2019     17:35 17:37 0.04 hrs 0.00 hrs 0.00 nm 0.10 gal 2.47 gal/hr 0.00 gal/nm 0 msl 0 kts
Wed, Oct 30, 2019     18:42 18:43 0.02 hrs 0.00 hrs 0.00 nm 0.04 gal 1.87 gal/hr 0.00 gal/nm 0 msl 0 kts
Wed, Oct 30, 2019     18:33 18:34 0.02 hrs 0.00 hrs 0.00 nm 0.02 gal 1.14 gal/hr 0.00 gal/nm 0 msl 0 kts
Wed, Oct 30, 2019     18:28 18:32 0.06 hrs 0.00 hrs 0.00 nm 0.05 gal 0.78 gal/hr 0.00 gal/nm 0 msl 0 kts
Wed, Oct 30, 2019 EDFC EDFC 18:15 18:25 0.16 hrs 0.00 hrs 0.00 nm 0.21 gal 1.30 gal/hr 0.00 gal/nm 0 msl 0 kts
Wed, Oct 30, 2019     17:53 17:56 0.05 hrs 0.00 hrs 0.00 nm 0.07 gal 1.46 gal/hr 0.00 gal/nm 0 msl 0 kts
Wed, Oct 30, 2019     17:51 17:51 0.01 hrs 0.00 hrs 0.00 nm 0.82 gal 79.78 gal/hr 0.00 gal/nm 0 msl 0 kts
Wed, Oct 30, 2019     16:07 16:08 0.01 hrs 0.00 hrs 0.00 nm 0.03 gal 2.16 gal/hr 0.00 gal/nm 0 msl 0 kts
Wed, Oct 30, 2019     16:05 16:07 0.03 hrs 0.00 hrs 0.00 nm 0.40 gal 13.46 gal/hr 0.00 gal/nm 0 msl 0 kts
Wed, Oct 30, 2019     15:54 15:55 0.01 hrs 0.00 hrs 0.00 nm 0.70 gal 51.43 gal/hr 0.00 gal/nm 0 msl 0 kts
Wed, Oct 30, 2019 EDFC EDFC 15:27 15:28 0.01 hrs 0.00 hrs 0.00 nm 0.03 gal 2.84 gal/hr 0.00 gal/nm 0 msl 0 kts
Wed, Oct 30, 2019 EDFC EDFC 15:25 15:27 0.03 hrs 0.00 hrs 0.00 nm 0.53 gal 21.20 gal/hr 0.00 gal/nm 0 msl 0 kts
Wed, Oct 30, 2019 ETEU EDFC 13:48 15:15 1.42 hrs 1.09 hrs 129.83 nm 13.42 gal 9.45 gal/hr 0.10 gal/nm 5116 msl 118 kts
Wed, Oct 30, 2019 EDFC ETEU 11:48 13:11 1.37 hrs 1.01 hrs 107.65 nm 11.59 gal 8.45 gal/hr 0.11 gal/nm 7517 msl 105 kts
Wed, Oct 30, 2019 EDFC EDFC 11:31 11:41 0.17 hrs 0.00 hrs 0.00 nm 0.36 gal 2.09 gal/hr 0.00 gal/nm 0 msl 0 kts
Wed, Oct 30, 2019     10:44 10:47 0.06 hrs 0.00 hrs 0.00 nm 20.09 gal 359.82 gal/hr 0.00 gal/nm 0 msl 0 kts
Tue, Oct 29, 2019 EDVK EDFC 17:12 18:23 1.17 hrs 0.84 hrs 113.12 nm 10.37 gal 8.86 gal/hr 0.09 gal/nm 6013 msl 133 kts
Tue, Oct 29, 2019 EDVK EDVK 15:05 16:35 1.48 hrs 1.07 hrs 127.61 nm 13.53 gal 9.11 gal/hr 0.11 gal/nm 6215 msl 118 kts
Tue, Oct 29, 2019 EDVK EDVK 14:23 14:26 0.05 hrs 0.00 hrs 0.00 nm 0.04 gal 0.83 gal/hr 0.00 gal/nm 0 msl 0 kts
Tue, Oct 29, 2019 EDFC EDVK 13:09 14:18 1.14 hrs 0.78 hrs 102.21 nm 10.13 gal 8.92 gal/hr 0.10 gal/nm 9324 msl 130 kts
Tue, Oct 29, 2019 EDFC EDFC 13:01 13:03 0.04 hrs 0.00 hrs 0.00 nm 0.01 gal 0.22 gal/hr 0.00 gal/nm 0 msl 0 kts
Tue, Oct 29, 2019 EDFC EDFC 12:33 12:39 0.11 hrs 0.00 hrs 0.00 nm 0.29 gal 2.76 gal/hr 0.00 gal/nm 0 msl 0 kts
Tue, Oct 29, 2019 EDFC EDFC 12:20 12:21 0.03 hrs 0.00 hrs 0.00 nm 23.02 gal 774.50 gal/hr 0.00 gal/nm 0 msl 0 kts
Tue, Oct 29, 2019     10:12 10:18 0.1 hrs 0.00 hrs 0.00 nm 0.02 gal 0.20 gal/hr 0.00 gal/nm 0 msl 0 kts
Mon, Oct 28, 2019 EDFC EDFC 16:03 18:00 1.91 hrs 1.46 hrs 180.27 nm 18.00 gal 9.41 gal/hr 0.10 gal/nm 6010 msl 122 kts
Mon, Oct 28, 2019 EDFC EDFC 15:53 15:54 0.03 hrs 0.00 hrs 0.00 nm 36.79 gal 1424.13 gal/hr 0.00 gal/nm 0 msl 0 kts
Sat, Oct 26, 2019 EDFR EDFC 14:42 15:26 0.72 hrs 0.52 hrs 68.48 nm 7.48 gal 10.36 gal/hr 0.11 gal/nm 3219 msl 131 kts
Sat, Oct 26, 2019 EDFC EDFR 11:43 12:28 0.74 hrs 0.54 hrs 73.39 nm 7.56 gal 10.21 gal/hr 0.10 gal/nm 3256 msl 134 kts
Sat, Oct 26, 2019     11:19 11:20 0.01 hrs 0.00 hrs 0.00 nm 0.00 gal 0.00 gal/hr 0.00 gal/nm 0 msl 0 kts
Thu, Oct 24, 2019 EDFC EDFC 16:17 16:19 0.03 hrs 0.00 hrs 0.00 nm 0.09 gal 2.83 gal/hr 0.00 gal/nm 0 msl 0 kts
Thu, Oct 24, 2019 EDFC EDFC 16:00 16:04 0.07 hrs 0.00 hrs 0.00 nm 0.19 gal 2.61 gal/hr 0.00 gal/nm 0 msl 0 kts
Wed, Oct 23, 2019     14:14 14:14 0.01 hrs 0.00 hrs 0.00 nm 0.03 gal 4.70 gal/hr 0.00 gal/nm 0 msl 0 kts
Tue, Oct 22, 2019 EDVY EDFC 17:00 18:08 1.12 hrs 1.00 hrs 143.07 nm 16.22 gal 14.52 gal/hr 0.11 gal/nm 3207 msl 141 kts
Tue, Oct 22, 2019 EDFC EDVY 11:53 13:05 1.17 hrs 0.97 hrs 143.12 nm 15.56 gal 13.31 gal/hr 0.11 gal/nm 4513 msl 145 kts
Tue, Oct 22, 2019 EDFC EDFC 11:40 11:47 0.11 hrs 0.00 hrs 0.00 nm 0.29 gal 2.53 gal/hr 0.00 gal/nm 0 msl 0 kts
Thu, Oct 17, 2019 EDFC EDFC 17:25 17:29 0.07 hrs 0.00 hrs 0.00 nm 0.16 gal 2.34 gal/hr 0.00 gal/nm 0 msl 0 kts
Thu, Oct 17, 2019 EDFC EDFC 16:13 16:25 0.2 hrs 0.00 hrs 0.00 nm 0.63 gal 3.14 gal/hr 0.00 gal/nm 0 msl 0 kts
Thu, Oct 17, 2019 EDFC EDFC 15:24 15:35 0.18 hrs 0.00 hrs 0.00 nm 0.60 gal 3.41 gal/hr 0.00 gal/nm 0 msl 0 kts
Thu, Oct 17, 2019     13:54 13:55 0.02 hrs 0.00 hrs 0.00 nm 0.09 gal 5.14 gal/hr 0.00 gal/nm 0 msl 0 kts
Thu, Oct 17, 2019 EDTY EDFC 12:22 13:14 0.85 hrs 0.58 hrs 78.31 nm 7.99 gal 9.44 gal/hr 0.10 gal/nm 6018 msl 133 kts
Thu, Oct 17, 2019 EDFC EDTY 10:05 11:50 1.73 hrs 1.44 hrs 180.30 nm 17.58 gal 10.19 gal/hr 0.10 gal/nm 7012 msl 124 kts
Thu, Oct 17, 2019 EDFC EDFC 09:49 09:54 0.09 hrs 0.00 hrs 0.00 nm 0.25 gal 2.75 gal/hr 0.00 gal/nm 0 msl 0 kts
Thu, Oct 17, 2019     09:44 09:45 0.01 hrs 0.00 hrs 0.00 nm 11.55 gal 1890.00 gal/hr 0.00 gal/nm 0 msl 0 kts
Wed, Oct 16, 2019     17:43 17:45 0.02 hrs 0.00 hrs 0.00 nm 0.31 gal 17.71 gal/hr 0.00 gal/nm 0 msl 0 kts
Sat, Oct 12, 2019 LFGA EDFC 13:00 14:07 1.1 hrs 0.93 hrs 143.12 nm 13.57 gal 12.29 gal/hr 0.09 gal/nm 7052 msl 152 kts
Sat, Oct 12, 2019 EDFC LFGA 10:30 12:01 1.49 hrs 1.23 hrs 143.32 nm 17.46 gal 11.71 gal/hr 0.12 gal/nm 4810 msl 115 kts
Thu, Oct 10, 2019 EDFC EDFC 12:01 12:04 0.04 hrs 0.00 hrs 0.00 nm 0.11 gal 2.76 gal/hr 0.00 gal/nm 0 msl 0 kts
Thu, Oct 10, 2019 EDFC EDFC 09:58 11:51 1.84 hrs 1.43 hrs 177.29 nm 18.37 gal 10.00 gal/hr 0.10 gal/nm 5151 msl 122 kts
Thu, Oct 10, 2019     09:51 09:52 0.01 hrs 0.00 hrs 0.00 nm 26.69 gal 1884.00 gal/hr 0.00 gal/nm 0 msl 0 kts
Mon, Oct 7, 2019     16:26 16:26 0.01 hrs 0.00 hrs 0.00 nm 0.01 gal 0.95 gal/hr 0.00 gal/nm 0 msl 0 kts
Mon, Oct 7, 2019     16:23 16:25 0.04 hrs 0.00 hrs 0.00 nm 0.03 gal 0.74 gal/hr 0.00 gal/nm 0 msl 0 kts
Mon, Oct 7, 2019     16:08 16:08 0.01 hrs 0.00 hrs 0.00 nm 0.09 gal 14.09 gal/hr 0.00 gal/nm 0 msl 0 kts
Sat, Oct 5, 2019     13:58 13:59 0 hrs 0.00 hrs 0.00 nm 0.00 gal 0.00 gal/hr 0.00 gal/nm 0 msl 0 kts
Tue, Oct 1, 2019 EDFC EDFC 10:42 13:24 2.67 hrs 2.01 hrs 265.22 nm 26.02 gal 9.76 gal/hr 0.10 gal/nm 5379 msl 130 kts
Tue, Oct 1, 2019 EDFC EDFC 10:11 10:15 0.07 hrs 0.00 hrs 0.00 nm 32.85 gal 488.68 gal/hr 0.00 gal/nm 0 msl 0 kts
Mon, Sep 30, 2019 EDFC EDFC 19:28 19:34 0.09 hrs 0.00 hrs 0.00 nm 0.19 gal 2.19 gal/hr 0.00 gal/nm 0 msl 0 kts
Mon, Sep 30, 2019 EDFC EDFC 18:16 19:21 1.06 hrs 0.68 hrs 77.96 nm 8.93 gal 8.40 gal/hr 0.11 gal/nm 4594 msl 114 kts
Mon, Sep 30, 2019     17:37 17:40 0.06 hrs 0.00 hrs 0.00 nm 29.41 gal 494.75 gal/hr 0.00 gal/nm 0 msl 0 kts
Mon, Sep 30, 2019     12:14 12:15 0.01 hrs 0.00 hrs 0.00 nm 0.04 gal 2.88 gal/hr 0.00 gal/nm 0 msl 0 kts
Sun, Sep 29, 2019 EDFC EDFC 12:10 12:43 0.54 hrs 0.26 hrs 25.21 nm 3.75 gal 6.90 gal/hr 0.15 gal/nm 1503 msl 96 kts
Sat, Sep 28, 2019 EDFC EDFC 15:30 15:34 0.07 hrs 0.00 hrs 0.00 nm 0.19 gal 2.85 gal/hr 0.00 gal/nm 0 msl 0 kts
Sat, Sep 28, 2019 EDFC EDFC 14:29 15:19 0.82 hrs 0.59 hrs 61.83 nm 7.61 gal 9.23 gal/hr 0.12 gal/nm 2695 msl 104 kts
Sat, Sep 28, 2019     14:25 14:25 0.01 hrs 0.00 hrs 0.00 nm 0.08 gal 7.38 gal/hr 0.00 gal/nm 0 msl 0 kts
Tue, Sep 24, 2019 EDFC EDFC 13:16 16:16 2.95 hrs 2.17 hrs 263.35 nm 29.11 gal 9.85 gal/hr 0.11 gal/nm 5515 msl 119 kts
Tue, Sep 24, 2019 EDFC EDFC 12:55 13:01 0.11 hrs 0.00 hrs 0.00 nm 0.27 gal 2.39 gal/hr 0.00 gal/nm 0 msl 0 kts
Tue, Sep 24, 2019 EDFC EDFC 12:23 12:27 0.05 hrs 0.00 hrs 0.00 nm 17.76 gal 343.74 gal/hr 0.00 gal/nm 0 msl 0 kts
Sun, Sep 22, 2019     13:22 13:24 0.04 hrs 0.00 hrs 0.00 nm 0.09 gal 2.45 gal/hr 0.00 gal/nm 0 msl 0 kts
Sat, Sep 21, 2019 LOIJ EDFC 13:45 15:21 1.58 hrs 1.45 hrs 215.79 nm 18.41 gal 11.68 gal/hr 0.09 gal/nm 8550 msl 147 kts
Sat, Sep 21, 2019 EDFC LOIJ 09:55 11:47 1.84 hrs 1.68 hrs 221.93 nm 22.40 gal 12.19 gal/hr 0.10 gal/nm 7106 msl 130 kts
Sat, Sep 21, 2019 EDFC EDFC 09:34 09:37 0.06 hrs 0.00 hrs 0.00 nm 0.16 gal 2.89 gal/hr 0.00 gal/nm 0 msl 0 kts
Fri, Sep 20, 2019 EDFB EDFC 16:37 17:11 0.55 hrs 0.31 hrs 36.79 nm 4.42 gal 8.07 gal/hr 0.12 gal/nm 2527 msl 118 kts
Fri, Sep 20, 2019 ETEU EDFB 14:39 15:40 1 hrs 0.72 hrs 97.63 nm 9.85 gal 9.89 gal/hr 0.10 gal/nm 4520 msl 134 kts
Fri, Sep 20, 2019 EDFC ETEU 12:56 13:43 0.76 hrs 0.44 hrs 53.82 nm 6.05 gal 7.99 gal/hr 0.11 gal/nm 3521 msl 122 kts
Fri, Sep 20, 2019 EDFC EDFC 12:38 12:42 0.05 hrs 0.00 hrs 0.00 nm 0.13 gal 2.39 gal/hr 0.00 gal/nm 0 msl 0 kts
Fri, Sep 20, 2019     12:12 12:12 0.01 hrs 0.00 hrs 0.00 nm 10.90 gal 1635.00 gal/hr 0.00 gal/nm 0 msl 0 kts
Fri, Sep 20, 2019 EDFC EDFC 12:07 12:09 0.03 hrs 0.00 hrs 0.00 nm 0.42 gal 16.62 gal/hr 0.00 gal/nm 0 msl 0 kts
Fri, Sep 20, 2019     11:36 11:37 0.01 hrs 0.00 hrs 0.00 nm 0.22 gal 14.94 gal/hr 0.00 gal/nm 0 msl 0 kts
Fri, Sep 20, 2019 ETEU EDFC 10:06 10:49 0.7 hrs 0.55 hrs 68.98 nm 6.80 gal 9.77 gal/hr 0.10 gal/nm 3724 msl 124 kts
Fri, Sep 20, 2019 EDFC ETEU 08:54 09:39 0.73 hrs 0.55 hrs 64.77 nm 6.77 gal 9.23 gal/hr 0.10 gal/nm 3733 msl 117 kts
Fri, Sep 20, 2019     08:41 08:43 0.02 hrs 0.00 hrs 0.00 nm 2.11 gal 99.95 gal/hr 0.00 gal/nm 0 msl 0 kts
Tue, Sep 17, 2019     09:48 09:49 0.01 hrs 0.00 hrs 0.00 nm 0.25 gal 25.00 gal/hr 0.00 gal/nm 0 msl 0 kts
Mon, Sep 16, 2019 ETEU EDFC 11:51 12:28 0.61 hrs 0.42 hrs 48.54 nm 5.89 gal 9.62 gal/hr 0.12 gal/nm 5015 msl 113 kts
Mon, Sep 16, 2019 EDFC ETEU 10:01 11:17 1.26 hrs 0.98 hrs 126.12 nm 12.64 gal 10.05 gal/hr 0.10 gal/nm 5077 msl 127 kts
Mon, Sep 16, 2019 EDFC EDFC 09:28 09:31 0.06 hrs 0.00 hrs 0.00 nm 0.16 gal 2.54 gal/hr 0.00 gal/nm 0 msl 0 kts
Mon, Sep 16, 2019     09:07 09:08 0.01 hrs 0.00 hrs 0.00 nm 0.13 gal 9.36 gal/hr 0.00 gal/nm 0 msl 0 kts
Sun, Sep 15, 2019 EDSB EDFC 16:50 17:54 1.05 hrs 0.71 hrs 97.70 nm 9.89 gal 9.44 gal/hr 0.10 gal/nm 4550 msl 135 kts
Sun, Sep 15, 2019     16:41 16:42 0.01 hrs 0.00 hrs 0.00 nm 35.77 gal 2524.94 gal/hr 0.00 gal/nm 0 msl 0 kts
Fri, Sep 13, 2019 EDFC EDSB 13:45 14:45 0.98 hrs 0.70 hrs 92.61 nm 9.78 gal 9.93 gal/hr 0.11 gal/nm 6568 msl 131 kts
Fri, Sep 13, 2019 EDFC EDFC 13:34 13:37 0.06 hrs 0.00 hrs 0.00 nm 0.16 gal 2.74 gal/hr 0.00 gal/nm 0 msl 0 kts
Fri, Sep 13, 2019     13:18 13:19 0.01 hrs 0.00 hrs 0.00 nm 28.09 gal 1982.82 gal/hr 0.00 gal/nm 0 msl 0 kts
Tue, Sep 10, 2019 EDFC EDFC 15:45 18:31 2.72 hrs 1.91 hrs 235.28 nm 24.03 gal 8.85 gal/hr 0.10 gal/nm 7128 msl 121 kts
Tue, Sep 10, 2019 EDFC EDFC 15:27 15:32 0.08 hrs 0.00 hrs 0.00 nm 0.20 gal 2.55 gal/hr 0.00 gal/nm 0 msl 0 kts
Sun, Sep 8, 2019     18:47 18:47 0 hrs 0.00 hrs 0.00 nm 0.00 gal 0.00 gal/hr 0.00 gal/nm 0 msl 0 kts
Sun, Sep 8, 2019     18:45 18:46 0.02 hrs 0.00 hrs 0.00 nm 0.16 gal 9.14 gal/hr 0.00 gal/nm 0 msl 0 kts
Fri, Sep 6, 2019 LFGA EDFC 13:54 16:04 2.13 hrs 1.69 hrs 220.18 nm 21.65 gal 10.15 gal/hr 0.10 gal/nm 9293 msl 129 kts
Fri, Sep 6, 2019 EDFC LFGA 09:25 11:00 1.56 hrs 1.13 hrs 155.58 nm 14.49 gal 9.28 gal/hr 0.09 gal/nm 8014 msl 136 kts
Fri, Sep 6, 2019 EDFC EDFC 09:00 09:06 0.1 hrs 0.00 hrs 0.00 nm 0.32 gal 3.27 gal/hr 0.00 gal/nm 0 msl 0 kts
Fri, Sep 6, 2019 EDFC EDFC 08:57 08:58 0.03 hrs 0.00 hrs 0.00 nm 27.98 gal 1083.10 gal/hr 0.00 gal/nm 0 msl 0 kts
Fri, Sep 6, 2019     08:42 08:42 0.01 hrs 0.00 hrs 0.00 nm 28.68 gal 2647.38 gal/hr 0.00 gal/nm 0 msl 0 kts
Thu, Sep 5, 2019 EDFR EDFC 12:35 13:15 0.65 hrs 0.51 hrs 68.20 nm 8.57 gal 13.18 gal/hr 0.13 gal/nm 4617 msl 131 kts
Thu, Sep 5, 2019 EDFC EDFR 09:43 10:30 0.78 hrs 0.55 hrs 76.42 nm 7.65 gal 9.86 gal/hr 0.10 gal/nm 3076 msl 138 kts
Thu, Sep 5, 2019     09:34 09:35 0.01 hrs 0.00 hrs 0.00 nm 0.23 gal 15.62 gal/hr 0.00 gal/nm 0 msl 0 kts
Tue, Sep 3, 2019     14:06 14:06 0.01 hrs 0.00 hrs 0.00 nm 0.05 gal 4.86 gal/hr 0.00 gal/nm 0 msl 0 kts
Tue, Sep 3, 2019     14:03 14:05 0.03 hrs 0.00 hrs 0.00 nm 0.07 gal 2.42 gal/hr 0.00 gal/nm 0 msl 0 kts
Tue, Sep 3, 2019 EDFC EDFC 12:52 12:56 0.06 hrs 0.00 hrs 0.00 nm 0.16 gal 2.52 gal/hr 0.00 gal/nm 0 msl 0 kts
Tue, Sep 3, 2019 EDQD EDFC 11:24 12:30 1.07 hrs 0.85 hrs 106.39 nm 11.15 gal 10.45 gal/hr 0.10 gal/nm 4530 msl 124 kts
Tue, Sep 3, 2019     11:13 11:14 0.01 hrs 0.00 hrs 0.00 nm 0.43 gal 29.21 gal/hr 0.00 gal/nm 0 msl 0 kts
Mon, Sep 2, 2019 EDQD EDQD 17:27 17:31 0.08 hrs 0.00 hrs 0.00 nm 0.20 gal 2.50 gal/hr 0.00 gal/nm 0 msl 0 kts
Mon, Sep 2, 2019 EDAB EDQD 15:56 17:14 1.28 hrs 1.06 hrs 143.63 nm 14.02 gal 10.98 gal/hr 0.10 gal/nm 4546 msl 134 kts
Mon, Sep 2, 2019 EPSY EDAB 12:17 15:14 2.91 hrs 2.27 hrs 298.09 nm 30.17 gal 10.35 gal/hr 0.10 gal/nm 8012 msl 130 kts
Mon, Sep 2, 2019 EPSY EPSY 10:02 10:36 0.56 hrs 0.38 hrs 45.35 nm 5.08 gal 9.06 gal/hr 0.11 gal/nm 1183 msl 117 kts
Mon, Sep 2, 2019     09:35 09:37 0.03 hrs 0.00 hrs 0.00 nm 17.96 gal 538.80 gal/hr 0.00 gal/nm 0 msl 0 kts
Sun, Sep 1, 2019 EYPA EPSY 12:48 14:55 2.1 hrs 1.72 hrs 214.13 nm 23.13 gal 11.04 gal/hr 0.11 gal/nm 4817 msl 123 kts
Sun, Sep 1, 2019     10:45 10:45 0 hrs 0.00 hrs 0.00 nm 0.01 gal 3.00 gal/hr 0.00 gal/nm 0 msl 0 kts
Sun, Sep 1, 2019 UMRR EYPA 09:09 10:43 1.54 hrs 1.08 hrs 136.80 nm 14.45 gal 9.35 gal/hr 0.11 gal/nm 2551 msl 125 kts
Sun, Sep 1, 2019     08:29 08:30 0.02 hrs 0.00 hrs 0.00 nm 0.02 gal 0.94 gal/hr 0.00 gal/nm 0 msl 0 kts
Sun, Sep 1, 2019     08:27 08:27 0.01 hrs 0.00 hrs 0.00 nm 29.58 gal 2802.32 gal/hr 0.00 gal/nm 0 msl 0 kts
Sat, Aug 31, 2019 EETN UMRR 09:38 11:22 1.72 hrs 1.25 hrs 161.86 nm 16.66 gal 9.69 gal/hr 0.10 gal/nm 1519 msl 127 kts
Sat, Aug 31, 2019 EETN EETN 09:09 09:12 0.06 hrs 0.00 hrs 0.00 nm 0.14 gal 2.39 gal/hr 0.00 gal/nm 0 msl 0 kts
Sat, Aug 31, 2019     09:02 09:03 0 hrs 0.00 hrs 0.00 nm 0.01 gal 3.27 gal/hr 0.00 gal/nm 0 msl 0 kts
Thu, Aug 29, 2019 EFHF EETN 17:01 17:55 0.87 hrs 0.51 hrs 55.25 nm 6.89 gal 7.92 gal/hr 0.12 gal/nm 5012 msl 107 kts
Thu, Aug 29, 2019 EFHF EFHF 12:20 12:24 0.06 hrs 0.00 hrs 0.00 nm 0.12 gal 1.94 gal/hr 0.00 gal/nm 0 msl 0 kts
Thu, Aug 29, 2019     12:05 12:05 0.01 hrs 0.00 hrs 0.00 nm 0.01 gal 0.68 gal/hr 0.00 gal/nm 0 msl 0 kts
Thu, Aug 29, 2019 ESSB EFHF 09:38 11:59 2.32 hrs 1.88 hrs 242.97 nm 24.11 gal 10.41 gal/hr 0.10 gal/nm 1639 msl 128 kts
Thu, Aug 29, 2019     09:13 09:13 0.01 hrs 0.00 hrs 0.00 nm 0.25 gal 22.50 gal/hr 0.00 gal/nm 0 msl 0 kts
Tue, Aug 27, 2019 ESSV ESSB 11:49 13:25 1.58 hrs 1.15 hrs 158.83 nm 15.89 gal 10.08 gal/hr 0.10 gal/nm 1518 msl 136 kts
Tue, Aug 27, 2019 ESSV ESSV 11:17 11:20 0.05 hrs 0.00 hrs 0.00 nm 0.15 gal 3.02 gal/hr 0.00 gal/nm 0 msl 0 kts
Tue, Aug 27, 2019 ESSV ESSV 11:05 11:07 0.03 hrs 0.00 hrs 0.00 nm 20.73 gal 627.13 gal/hr 0.00 gal/nm 0 msl 0 kts
Mon, Aug 26, 2019     16:37 16:37 0.01 hrs 0.00 hrs 0.00 nm 0.05 gal 4.74 gal/hr 0.00 gal/nm 0 msl 0 kts
Mon, Aug 26, 2019 EDCG ESSV 14:16 16:26 2.14 hrs 1.92 hrs 274.55 nm 25.11 gal 11.71 gal/hr 0.09 gal/nm 5766 msl 141 kts
Mon, Aug 26, 2019 EDCG EDCG 13:06 13:09 0.04 hrs 0.00 hrs 0.00 nm 0.12 gal 2.80 gal/hr 0.00 gal/nm 0 msl 0 kts
Mon, Aug 26, 2019     13:02 13:03 0.02 hrs 0.00 hrs 0.00 nm 7.88 gal 373.26 gal/hr 0.00 gal/nm 0 msl 0 kts
Mon, Aug 26, 2019 EDQD EDCG 10:45 12:57 2.16 hrs 1.90 hrs 275.69 nm 25.41 gal 11.77 gal/hr 0.09 gal/nm 7510 msl 143 kts
Mon, Aug 26, 2019 EDFC EDQD 09:14 10:21 1.09 hrs 0.85 hrs 107.97 nm 10.85 gal 9.92 gal/hr 0.10 gal/nm 5512 msl 125 kts
Mon, Aug 26, 2019 EDFC EDFC 08:51 08:57 0.11 hrs 0.00 hrs 0.00 nm 0.21 gal 1.91 gal/hr 0.00 gal/nm 0 msl 0 kts
Mon, Aug 26, 2019     08:32 08:33 0.02 hrs 0.00 hrs 0.00 nm 37.18 gal 2124.57 gal/hr 0.00 gal/nm 0 msl 0 kts
Mon, Aug 26, 2019 EDFC EDFC 08:12 08:26 0.23 hrs 0.00 hrs 0.00 nm 0.86 gal 3.73 gal/hr 0.00 gal/nm 0 msl 0 kts
Mon, Aug 26, 2019 EDFC EDFC 08:00 08:00 0.01 hrs 0.00 hrs 0.00 nm 0.09 gal 8.76 gal/hr 0.00 gal/nm 0 msl 0 kts
Mon, Aug 26, 2019     07:58 07:59 0.02 hrs 0.00 hrs 0.00 nm 0.67 gal 37.69 gal/hr 0.00 gal/nm 0 msl 0 kts
Sun, Aug 25, 2019     16:54 16:54 0 hrs 0.00 hrs 0.00 nm 0.00 gal 0.00 gal/hr 0.00 gal/nm 0 msl 0 kts
Sun, Aug 25, 2019     16:42 16:44 0.03 hrs 0.00 hrs 0.00 nm 0.11 gal 3.81 gal/hr 0.00 gal/nm 0 msl 0 kts
Sun, Aug 25, 2019 EDFC EDFC 14:17 15:52 1.55 hrs 1.12 hrs 131.83 nm 14.74 gal 9.52 gal/hr 0.11 gal/nm 5107 msl 116 kts
Sun, Aug 25, 2019 EDFB EDFC 13:17 13:50 0.55 hrs 0.26 hrs 30.54 nm 3.70 gal 6.69 gal/hr 0.12 gal/nm 1653 msl 118 kts
Sun, Aug 25, 2019 EDFC EDFB 11:20 12:59 1.62 hrs 1.13 hrs 139.23 nm 14.61 gal 9.01 gal/hr 0.10 gal/nm 4717 msl 122 kts
Sun, Aug 25, 2019     11:06 11:06 0.01 hrs 0.00 hrs 0.00 nm 21.89 gal 3152.16 gal/hr 0.00 gal/nm 0 msl 0 kts
Sun, Aug 25, 2019     11:04 11:05 0.02 hrs 0.00 hrs 0.00 nm 0.11 gal 6.29 gal/hr 0.00 gal/nm 0 msl 0 kts
Sat, Aug 24, 2019 EDKV EDFC 15:07 16:08 1.01 hrs 0.89 hrs 117.73 nm 12.63 gal 12.45 gal/hr 0.11 gal/nm 7148 msl 131 kts
Sat, Aug 24, 2019 EDFC EDKV 12:30 13:32 1.02 hrs 0.84 hrs 116.72 nm 11.39 gal 11.13 gal/hr 0.10 gal/nm 3466 msl 137 kts
Sat, Aug 24, 2019 EDFC EDFC 12:18 12:23 0.08 hrs 0.00 hrs 0.00 nm 0.24 gal 2.91 gal/hr 0.00 gal/nm 0 msl 0 kts
Sat, Aug 24, 2019     11:57 11:58 0.01 hrs 0.00 hrs 0.00 nm 0.63 gal 59.68 gal/hr 0.00 gal/nm 0 msl 0 kts
Fri, Aug 23, 2019 ETEU EDFC 17:55 18:29 0.57 hrs 0.40 hrs 53.78 nm 5.70 gal 9.98 gal/hr 0.11 gal/nm 3655 msl 131 kts
Fri, Aug 23, 2019 EDFC ETEU 16:29 17:21 0.85 hrs 0.63 hrs 76.77 nm 8.83 gal 10.41 gal/hr 0.11 gal/nm 4939 msl 119 kts
Fri, Aug 23, 2019     16:18 16:19 0.01 hrs 0.00 hrs 0.00 nm 0.00 gal 0.00 gal/hr 0.00 gal/nm 0 msl 0 kts
Fri, Aug 23, 2019 EDFC EDFC 10:43 10:49 0.09 hrs 0.00 hrs 0.00 nm 0.13 gal 1.51 gal/hr 0.00 gal/nm 0 msl 0 kts
Fri, Aug 23, 2019 EDFC EDFC 10:35 10:39 0.07 hrs 0.00 hrs 0.00 nm 0.17 gal 2.49 gal/hr 0.00 gal/nm 0 msl 0 kts
Thu, Aug 22, 2019 EDAQ EDFC 13:55 15:18 1.35 hrs 1.13 hrs 157.08 nm 15.97 gal 11.81 gal/hr 0.10 gal/nm 8510 msl 137 kts
Thu, Aug 22, 2019     13:53 13:53 0.01 hrs 0.00 hrs 0.00 nm 0.13 gal 12.65 gal/hr 0.00 gal/nm 0 msl 0 kts
Thu, Aug 22, 2019 EDAZ EDAQ 12:12 13:00 0.79 hrs 0.58 hrs 71.28 nm 7.82 gal 9.93 gal/hr 0.11 gal/nm 2843 msl 121 kts
Thu, Aug 22, 2019 EDAZ EDAZ 12:02 12:04 0.03 hrs 0.00 hrs 0.00 nm 0.07 gal 2.49 gal/hr 0.00 gal/nm 0 msl 0 kts
Thu, Aug 22, 2019     11:57 11:57 0.01 hrs 0.00 hrs 0.00 nm 0.02 gal 1.95 gal/hr 0.00 gal/nm 0 msl 0 kts
Thu, Aug 22, 2019 EDAZ EDAZ 08:16 08:28 0.2 hrs 0.00 hrs 0.00 nm 1.05 gal 5.15 gal/hr 0.00 gal/nm 0 msl 0 kts
Thu, Aug 22, 2019 EDAZ EDAZ 07:46 07:49 0.06 hrs 0.00 hrs 0.00 nm 0.18 gal 3.26 gal/hr 0.00 gal/nm 0 msl 0 kts
Wed, Aug 21, 2019 EDAZ EDAZ 14:07 14:27 0.33 hrs 0.00 hrs 0.06 nm 0.36 gal 1.10 gal/hr 6.00 gal/nm 138 msl 101 kts
Wed, Aug 21, 2019 EDAZ EDAZ 13:09 13:11 0.04 hrs 0.00 hrs 0.00 nm 0.11 gal 3.02 gal/hr 0.00 gal/nm 0 msl 0 kts
Tue, Aug 20, 2019 EDAZ EDAZ 15:17 15:19 0.03 hrs 0.00 hrs 0.00 nm 0.23 gal 7.02 gal/hr 0.00 gal/nm 0 msl 0 kts
Tue, Aug 20, 2019 EDAZ EDAZ 15:15 15:17 0.04 hrs 0.00 hrs 0.00 nm 0.02 gal 0.54 gal/hr 0.00 gal/nm 0 msl 0 kts
Tue, Aug 20, 2019     15:14 15:14 0.01 hrs 0.00 hrs 0.00 nm 0.07 gal 6.81 gal/hr 0.00 gal/nm 0 msl 0 kts
Tue, Aug 20, 2019     14:58 14:58 0 hrs 0.00 hrs 0.00 nm 0.00 gal 0.00 gal/hr 0.00 gal/nm 0 msl 0 kts
Tue, Aug 20, 2019     14:56 14:58 0.03 hrs 0.00 hrs 0.00 nm 0.18 gal 7.20 gal/hr 0.00 gal/nm 0 msl 0 kts
Mon, Aug 19, 2019 EDAZ EDAZ 07:41 07:52 0.18 hrs 0.00 hrs 0.00 nm 0.77 gal 4.24 gal/hr 0.00 gal/nm 0 msl 0 kts
Fri, Aug 16, 2019 EDFC EDAZ 12:31 14:29 1.95 hrs 1.67 hrs 249.38 nm 25.48 gal 13.10 gal/hr 0.10 gal/nm 4272 msl 147 kts
Fri, Aug 16, 2019 EDFC EDFC 11:16 11:22 0.09 hrs 0.00 hrs 0.00 nm 0.26 gal 2.86 gal/hr 0.00 gal/nm 0 msl 0 kts
Fri, Aug 16, 2019     10:27 10:29 0.04 hrs 0.00 hrs 0.00 nm 31.16 gal 849.82 gal/hr 0.00 gal/nm 0 msl 0 kts
Thu, Aug 15, 2019     20:31 20:31 0 hrs 0.00 hrs 0.00 nm 0.00 gal 0.00 gal/hr 0.00 gal/nm 0 msl 0 kts
Thu, Aug 15, 2019     20:30 20:31 0 hrs 0.00 hrs 0.00 nm 0.00 gal 0.00 gal/hr 0.00 gal/nm 0 msl 0 kts
Thu, Aug 15, 2019     20:29 20:30 0.01 hrs 0.00 hrs 0.00 nm 0.00 gal 0.00 gal/hr 0.00 gal/nm 0 msl 0 kts
Thu, Aug 15, 2019 EDFC EDFC 20:02 20:05 0.04 hrs 0.00 hrs 0.00 nm 0.09 gal 2.18 gal/hr 0.00 gal/nm 0 msl 0 kts
Thu, Aug 15, 2019 EDFC EDFC 19:54 19:58 0.05 hrs 0.00 hrs 0.00 nm 0.13 gal 2.56 gal/hr 0.00 gal/nm 0 msl 0 kts
Thu, Aug 15, 2019 LKHS EDFC 11:55 14:04 2.11 hrs 1.91 hrs 252.53 nm 25.77 gal 12.20 gal/hr 0.10 gal/nm 5220 msl 130 kts
Thu, Aug 15, 2019 LKHS LKHS 11:36 11:38 0.03 hrs 0.00 hrs 0.00 nm 0.00 gal 0.03 gal/hr 0.00 gal/nm 0 msl 0 kts
Wed, Aug 14, 2019     16:54 16:55 0.02 hrs 0.00 hrs 0.00 nm 0.03 gal 1.71 gal/hr 0.00 gal/nm 0 msl 0 kts
Tue, Aug 13, 2019 EDFC LKHS 12:37 14:30 1.85 hrs 1.74 hrs 259.03 nm 23.20 gal 12.57 gal/hr 0.09 gal/nm 7531 msl 147 kts
Tue, Aug 13, 2019 EDFC EDFC 12:21 12:33 0.21 hrs 0.00 hrs 0.00 nm 0.80 gal 3.86 gal/hr 0.00 gal/nm 0 msl 0 kts
Tue, Aug 13, 2019 EDFC EDFC 12:01 12:11 0.17 hrs 0.00 hrs 0.00 nm 0.47 gal 2.83 gal/hr 0.00 gal/nm 0 msl 0 kts
Tue, Aug 13, 2019     11:40 11:42 0.03 hrs 0.00 hrs 0.00 nm 39.46 gal 1561.05 gal/hr 0.00 gal/nm 0 msl 0 kts
Mon, Aug 12, 2019     08:53 08:54 0.03 hrs 0.00 hrs 0.00 nm 0.45 gal 18.00 gal/hr 0.00 gal/nm 0 msl 0 kts
Sat, Aug 10, 2019 EDFC EDFC 12:01 12:02 0.01 hrs 0.00 hrs 0.00 nm 8.04 gal 804.00 gal/hr 0.00 gal/nm 0 msl 0 kts
Sat, Aug 10, 2019 EDFC EDFC 10:52 12:01 1.13 hrs 0.74 hrs 91.14 nm 11.26 gal 9.93 gal/hr 0.12 gal/nm 3238 msl 121 kts
Sat, Aug 10, 2019 EDFC EDFC 10:34 10:39 0.07 hrs 0.00 hrs 0.00 nm 0.24 gal 3.22 gal/hr 0.00 gal/nm 0 msl 0 kts
Sat, Aug 10, 2019     10:26 10:26 0 hrs 0.00 hrs 0.00 nm 0.00 gal 0.00 gal/hr 0.00 gal/nm 0 msl 0 kts
Fri, Aug 9, 2019 LFGA EDFC 09:48 10:55 1.11 hrs 0.96 hrs 142.63 nm 11.23 gal 10.14 gal/hr 0.08 gal/nm 3515 msl 146 kts
Fri, Aug 9, 2019 LFGA LFGA 09:28 09:36 0.12 hrs 0.00 hrs 0.00 nm 0.18 gal 1.46 gal/hr 0.00 gal/nm 0 msl 0 kts
Thu, Aug 8, 2019 EDFC LFGA 16:25 17:42 1.28 hrs 1.10 hrs 140.19 nm 12.92 gal 10.12 gal/hr 0.09 gal/nm 4529 msl 126 kts
Thu, Aug 8, 2019 EDFC EDFC 16:13 16:16 0.06 hrs 0.00 hrs 0.00 nm 0.14 gal 2.60 gal/hr 0.00 gal/nm 0 msl 0 kts
Thu, Aug 8, 2019     16:06 16:07 0.01 hrs 0.00 hrs 0.00 nm 29.13 gal 2056.24 gal/hr 0.00 gal/nm 0 msl 0 kts
Thu, Aug 8, 2019 EDFC EDFC 10:55 12:47 1.83 hrs 1.56 hrs 193.80 nm 17.93 gal 9.78 gal/hr 0.09 gal/nm 6179 msl 123 kts
Tue, Aug 6, 2019 EDFC EDFC 14:45 14:47 0.04 hrs 0.00 hrs 0.00 nm 0.13 gal 2.87 gal/hr 0.00 gal/nm 0 msl 0 kts
Tue, Aug 6, 2019 EDFC EDFC 12:15 14:36 2.3 hrs 1.88 hrs 236.60 nm 21.81 gal 9.48 gal/hr 0.09 gal/nm 5076 msl 124 kts
Mon, Aug 5, 2019 EDRY EDFC 18:14 19:53 1.62 hrs 1.29 hrs 157.28 nm 15.69 gal 9.66 gal/hr 0.10 gal/nm 4583 msl 120 kts
Mon, Aug 5, 2019 EDDR EDRY 14:11 17:14 3 hrs 2.53 hrs 318.56 nm 29.89 gal 9.97 gal/hr 0.09 gal/nm 7112 msl 124 kts
Mon, Aug 5, 2019 EDFC EDDR 10:32 12:35 2.02 hrs 1.51 hrs 170.91 nm 18.91 gal 9.37 gal/hr 0.11 gal/nm 6028 msl 112 kts
Mon, Aug 5, 2019     10:25 10:25 0.01 hrs 0.00 hrs 0.00 nm 0.01 gal 1.38 gal/hr 0.00 gal/nm 0 msl 0 kts
Mon, Aug 5, 2019 EDFC EDFC 10:23 10:24 0.01 hrs 0.00 hrs 0.00 nm 3.79 gal 368.76 gal/hr 0.00 gal/nm 0 msl 0 kts
Mon, Aug 5, 2019     10:22 10:23 0.01 hrs 0.00 hrs 0.00 nm 0.03 gal 2.20 gal/hr 0.00 gal/nm 0 msl 0 kts
Mon, Aug 5, 2019 EDFC EDFC 10:11 10:21 0.17 hrs 0.00 hrs 0.00 nm 0.23 gal 1.37 gal/hr 0.00 gal/nm 0 msl 0 kts
Sun, Aug 4, 2019     09:13 09:15 0.03 hrs 0.00 hrs 0.00 nm 0.07 gal 2.15 gal/hr 0.00 gal/nm 0 msl 0 kts
Fri, Aug 2, 2019 EDVY EDFC 15:09 16:26 1.25 hrs 1.05 hrs 142.06 nm 14.25 gal 11.38 gal/hr 0.10 gal/nm 4032 msl 134 kts
Fri, Aug 2, 2019 EDKB EDVY 11:56 13:12 1.26 hrs 0.94 hrs 119.32 nm 12.80 gal 10.15 gal/hr 0.11 gal/nm 4020 msl 125 kts
Fri, Aug 2, 2019 EDFC EDKB 09:39 10:58 1.3 hrs 1.07 hrs 137.27 nm 13.98 gal 10.78 gal/hr 0.10 gal/nm 3030 msl 127 kts
Fri, Aug 2, 2019 EDFC EDFC 08:25 08:30 0.09 hrs 0.00 hrs 0.00 nm 0.21 gal 2.28 gal/hr 0.00 gal/nm 0 msl 0 kts
Thu, Aug 1, 2019 EDMK EDFC 15:24 16:50 1.41 hrs 1.19 hrs 161.83 nm 16.21 gal 11.54 gal/hr 0.10 gal/nm 6552 msl 134 kts
Thu, Aug 1, 2019 EDTD EDMK 12:44 13:47 1.03 hrs 0.79 hrs 100.01 nm 10.81 gal 10.50 gal/hr 0.11 gal/nm 4544 msl 126 kts
Thu, Aug 1, 2019 EDFC EDTD 10:23 11:45 1.35 hrs 1.01 hrs 134.60 nm 13.83 gal 10.26 gal/hr 0.10 gal/nm 4597 msl 131 kts
Thu, Aug 1, 2019     09:07 09:07 0 hrs 0.00 hrs 0.00 nm 0.02 gal 6.00 gal/hr 0.00 gal/nm 0 msl 0 kts
Thu, Aug 1, 2019 EDFC EDFC 08:59 09:04 0.1 hrs 0.00 hrs 0.00 nm 0.20 gal 2.09 gal/hr 0.00 gal/nm 0 msl 0 kts
Thu, Aug 1, 2019     08:07 08:09 0.04 hrs 0.00 hrs 0.00 nm 23.50 gal 636.09 gal/hr 0.00 gal/nm 0 msl 0 kts
Thu, Aug 1, 2019     08:00 08:03 0.04 hrs 0.00 hrs 0.00 nm 23.09 gal 634.53 gal/hr 0.00 gal/nm 0 msl 0 kts
Wed, Jul 31, 2019 EDDR EDFC 13:08 14:13 1.07 hrs 0.74 hrs 105.56 nm 9.62 gal 8.99 gal/hr 0.09 gal/nm 7031 msl 141 kts
Wed, Jul 31, 2019 EDFC EDDR 10:06 12:05 1.96 hrs 1.65 hrs 183.16 nm 19.62 gal 10.03 gal/hr 0.11 gal/nm 8012 msl 109 kts
Wed, Jul 31, 2019 EDFC EDFC 09:32 09:38 0.11 hrs 0.00 hrs 0.00 nm 0.25 gal 2.33 gal/hr 0.00 gal/nm 0 msl 0 kts
Wed, Jul 31, 2019 EDFC EDFC 09:16 09:18 0.04 hrs 0.00 hrs 0.00 nm 13.67 gal 375.66 gal/hr 0.00 gal/nm 0 msl 0 kts
Tue, Jul 30, 2019 EDFC EDFC 18:22 20:22 1.97 hrs 1.64 hrs 214.87 nm 19.56 gal 9.91 gal/hr 0.09 gal/nm 4022 msl 129 kts
Tue, Jul 30, 2019     18:13 18:13 0.01 hrs 0.00 hrs 0.00 nm 18.01 gal 2818.96 gal/hr 0.00 gal/nm 0 msl 0 kts
Tue, Jul 30, 2019 EDFM EDFC 11:24 12:00 0.58 hrs 0.36 hrs 44.28 nm 4.92 gal 8.51 gal/hr 0.11 gal/nm 3310 msl 122 kts
Tue, Jul 30, 2019 EDFC EDFM 10:08 10:48 0.65 hrs 0.39 hrs 46.75 nm 5.11 gal 7.86 gal/hr 0.11 gal/nm 3014 msl 119 kts
Tue, Jul 30, 2019 EDFC EDFC 09:55 09:58 0.04 hrs 0.00 hrs 0.00 nm 36.76 gal 900.24 gal/hr 0.00 gal/nm 0 msl 0 kts
Sat, Jul 27, 2019     13:08 13:10 0.03 hrs 0.00 hrs 0.00 nm 0.04 gal 1.40 gal/hr 0.00 gal/nm 0 msl 0 kts
Sat, Jul 27, 2019     13:06 13:07 0.02 hrs 0.00 hrs 0.00 nm 0.12 gal 5.61 gal/hr 0.00 gal/nm 0 msl 0 kts
Sat, Jul 27, 2019     13:01 13:03 0.02 hrs 0.00 hrs 0.00 nm 0.25 gal 11.84 gal/hr 0.00 gal/nm 0 msl 0 kts
Thu, Jul 25, 2019 ETEU EDFC 09:46 10:27 0.67 hrs 0.38 hrs 48.83 nm 5.71 gal 8.53 gal/hr 0.12 gal/nm 3666 msl 127 kts
Thu, Jul 25, 2019 EDFC ETEU 08:50 09:39 0.81 hrs 0.59 hrs 65.92 nm 7.30 gal 9.01 gal/hr 0.11 gal/nm 3669 msl 110 kts
Thu, Jul 25, 2019 EDFC EDFC 08:40 08:45 0.07 hrs 0.00 hrs 0.00 nm 0.18 gal 2.42 gal/hr 0.00 gal/nm 0 msl 0 kts
Thu, Jul 25, 2019     08:32 08:32 0.01 hrs 0.00 hrs 0.00 nm 0.25 gal 18.00 gal/hr 0.00 gal/nm 0 msl 0 kts
Wed, Jul 24, 2019 EDFC EDFC 17:31 19:25 1.88 hrs 1.41 hrs 167.53 nm 17.53 gal 9.35 gal/hr 0.10 gal/nm 3670 msl 117 kts
Tue, Jul 23, 2019     17:49 17:49 0.01 hrs 0.00 hrs 0.00 nm 0.22 gal 34.43 gal/hr 0.00 gal/nm 0 msl 0 kts
Mon, Jul 22, 2019     11:39 11:40 0.01 hrs 0.00 hrs 0.00 nm 0.05 gal 3.40 gal/hr 0.00 gal/nm 0 msl 0 kts
Mon, Jul 22, 2019     11:36 11:36 0.01 hrs 0.00 hrs 0.00 nm 0.01 gal 0.95 gal/hr 0.00 gal/nm 0 msl 0 kts
Mon, Jul 22, 2019     11:34 11:36 0.02 hrs 0.00 hrs 0.00 nm 0.20 gal 9.47 gal/hr 0.00 gal/nm 0 msl 0 kts
Sun, Jul 21, 2019 EDFC EDFC 12:25 13:27 1.03 hrs 0.56 hrs 68.27 nm 7.75 gal 7.52 gal/hr 0.11 gal/nm 4030 msl 121 kts
Sun, Jul 21, 2019     11:38 11:39 0.01 hrs 0.00 hrs 0.00 nm 0.51 gal 34.64 gal/hr 0.00 gal/nm 0 msl 0 kts
Sun, Jul 21, 2019     11:26 11:30 0.06 hrs 0.00 hrs 0.00 nm 35.14 gal 629.37 gal/hr 0.00 gal/nm 0 msl 0 kts
Sat, Jul 20, 2019     14:17 14:21 0.07 hrs 0.00 hrs 0.00 nm 0.77 gal 11.41 gal/hr 0.00 gal/nm 0 msl 0 kts
Fri, Jul 19, 2019 EDFC EDFC 13:21 13:26 0.07 hrs 0.00 hrs 0.00 nm 0.20 gal 2.89 gal/hr 0.00 gal/nm 0 msl 0 kts
Fri, Jul 19, 2019 ETEU EDFC 12:11 13:05 0.9 hrs 0.63 hrs 67.83 nm 7.90 gal 8.81 gal/hr 0.12 gal/nm 3484 msl 106 kts
Fri, Jul 19, 2019 EDFC ETEU 09:29 11:01 1.51 hrs 1.12 hrs 112.28 nm 13.44 gal 8.93 gal/hr 0.12 gal/nm 3035 msl 99 kts
Fri, Jul 19, 2019 EDFC EDFC 09:16 09:19 0.04 hrs 0.00 hrs 0.00 nm 29.61 gal 670.42 gal/hr 0.00 gal/nm 0 msl 0 kts
Thu, Jul 18, 2019 EDFC EDFC 08:41 08:45 0.07 hrs 0.00 hrs 0.00 nm 0.16 gal 2.32 gal/hr 0.00 gal/nm 0 msl 0 kts
Thu, Jul 18, 2019 EDFC EDFC 08:33 08:36 0.05 hrs 0.00 hrs 0.00 nm 0.14 gal 2.78 gal/hr 0.00 gal/nm 0 msl 0 kts
Thu, Jul 18, 2019 EDFC EDFC 08:30 08:32 0.03 hrs 0.00 hrs 0.00 nm 0.10 gal 3.80 gal/hr 0.00 gal/nm 0 msl 0 kts
Sun, Jul 14, 2019     15:07 15:08 0.01 hrs 0.00 hrs 0.00 nm 0.02 gal 1.41 gal/hr 0.00 gal/nm 0 msl 0 kts
Sun, Jul 14, 2019 EDFC EDFC 14:20 14:29 0.14 hrs 0.00 hrs 0.00 nm 30.86 gal 221.75 gal/hr 0.00 gal/nm 0 msl 0 kts
Thu, Jul 11, 2019     18:37 18:38 0.02 hrs 0.00 hrs 0.00 nm 0.52 gal 24.63 gal/hr 0.00 gal/nm 0 msl 0 kts
Tue, Jul 9, 2019 EDRY EDFC 19:49 20:25 0.6 hrs 0.43 hrs 52.25 nm 5.72 gal 9.57 gal/hr 0.11 gal/nm 3017 msl 119 kts
Tue, Jul 9, 2019 EDFC EDRY 17:56 19:36 1.65 hrs 1.48 hrs 174.64 nm 17.55 gal 10.63 gal/hr 0.10 gal/nm 3518 msl 117 kts
Tue, Jul 9, 2019 EDFC EDFC 17:43 17:48 0.08 hrs 0.00 hrs 0.00 nm 0.19 gal 2.33 gal/hr 0.00 gal/nm 0 msl 0 kts
Tue, Jul 9, 2019     17:31 17:33 0.02 hrs 0.00 hrs 0.00 nm 20.24 gal 1175.23 gal/hr 0.00 gal/nm 0 msl 0 kts
Tue, Jul 9, 2019 EDFC EDFC 10:00 11:40 1.63 hrs 1.31 hrs 153.32 nm 15.71 gal 9.62 gal/hr 0.10 gal/nm 4176 msl 116 kts
Fri, Jul 5, 2019 EDFC EDFC 10:22 11:45 1.36 hrs 1.19 hrs 158.31 nm 14.75 gal 10.85 gal/hr 0.09 gal/nm 3290 msl 131 kts
Thu, Jul 4, 2019 EDFC EDFC 11:15 11:54 0.65 hrs 0.47 hrs 54.09 nm 6.39 gal 9.82 gal/hr 0.12 gal/nm 2502 msl 113 kts
Thu, Jul 4, 2019 EDFC EDFC 10:31 10:34 0.05 hrs 0.00 hrs 0.00 nm 0.15 gal 2.93 gal/hr 0.00 gal/nm 0 msl 0 kts
Tue, Jul 2, 2019     18:08 18:10 0.03 hrs 0.00 hrs 0.00 nm 0.08 gal 2.44 gal/hr 0.00 gal/nm 0 msl 0 kts
Tue, Jul 2, 2019 EDFC EDFC 15:35 17:26 1.82 hrs 1.50 hrs 172.73 nm 18.14 gal 9.97 gal/hr 0.11 gal/nm 5031 msl 114 kts
Tue, Jul 2, 2019 EDFC EDFC 15:07 15:09 0.03 hrs 0.00 hrs 0.00 nm 0.06 gal 2.06 gal/hr 0.00 gal/nm 0 msl 0 kts
Tue, Jul 2, 2019 EDFC EDFC 14:48 14:57 0.14 hrs 0.00 hrs 0.00 nm 0.34 gal 2.35 gal/hr 0.00 gal/nm 0 msl 0 kts
Tue, Jul 2, 2019     14:22 14:28 0.09 hrs 0.00 hrs 0.00 nm 0.06 gal 0.67 gal/hr 0.00 gal/nm 0 msl 0 kts
Tue, Jul 2, 2019     13:45 14:21 0.59 hrs 0.00 hrs 0.00 nm 0.12 gal 0.20 gal/hr 0.00 gal/nm 0 msl 0 kts
Tue, Jul 2, 2019 EDFC EDFC 13:10 13:12 0.03 hrs 0.00 hrs 0.00 nm 0.09 gal 2.64 gal/hr 0.00 gal/nm 0 msl 0 kts
Tue, Jul 2, 2019 EDFC EDFC 11:20 11:29 0.15 hrs 0.00 hrs 0.00 nm 0.73 gal 4.83 gal/hr 0.00 gal/nm 0 msl 0 kts
Tue, Jul 2, 2019 EDFC EDFC 07:24 07:26 0.04 hrs 0.00 hrs 0.00 nm 0.10 gal 2.56 gal/hr 0.00 gal/nm 0 msl 0 kts
Mon, Jul 1, 2019 EDSB EDFC 16:15 17:22 1.1 hrs 0.76 hrs 108.16 nm 10.56 gal 9.58 gal/hr 0.10 gal/nm 7038 msl 140 kts
Mon, Jul 1, 2019 EDFC EDSB 13:11 15:30 2.26 hrs 1.78 hrs 212.85 nm 23.37 gal 10.32 gal/hr 0.11 gal/nm 7012 msl 118 kts
Mon, Jul 1, 2019     12:56 12:56 0.01 hrs 0.00 hrs 0.00 nm 0.00 gal 0.00 gal/hr 0.00 gal/nm 0 msl 0 kts
Mon, Jul 1, 2019     12:13 12:13 0.01 hrs 0.00 hrs 0.00 nm 0.00 gal 0.00 gal/hr 0.00 gal/nm 0 msl 0 kts
Mon, Jul 1, 2019 EDFC EDFC 12:04 12:06 0.04 hrs 0.00 hrs 0.00 nm 30.30 gal 681.75 gal/hr 0.00 gal/nm 0 msl 0 kts
Mon, Jul 1, 2019     10:10 10:18 0.14 hrs 0.00 hrs 0.00 nm 0.00 gal 0.00 gal/hr 0.00 gal/nm 0 msl 0 kts
Mon, Jul 1, 2019     09:58 09:59 0.02 hrs 0.00 hrs 0.00 nm 0.00 gal 0.00 gal/hr 0.00 gal/nm 0 msl 0 kts
Sun, Jun 30, 2019 EDFC EDFC 21:33 21:36 0.04 hrs 0.00 hrs 0.00 nm 0.14 gal 3.23 gal/hr 0.00 gal/nm 0 msl 0 kts
Sun, Jun 30, 2019     21:23 21:25 0.02 hrs 0.00 hrs 0.00 nm 0.09 gal 4.28 gal/hr 0.00 gal/nm 0 msl 0 kts
Sun, Jun 30, 2019 EGTK EDFC 17:44 20:57 3.17 hrs 2.78 hrs 445.96 nm 38.03 gal 11.99 gal/hr 0.09 gal/nm 9018 msl 158 kts
Sun, Jun 30, 2019 EGTK EGTK 17:14 17:16 0.04 hrs 0.00 hrs 0.00 nm 28.91 gal 782.53 gal/hr 0.00 gal/nm 0 msl 0 kts
Fri, Jun 28, 2019 EDFZ EGTK 14:33 17:53 3.28 hrs 3.01 hrs 398.91 nm 34.40 gal 10.48 gal/hr 0.09 gal/nm 8014 msl 131 kts
Fri, Jun 28, 2019 EDFZ EDFZ 14:06 14:11 0.07 hrs 0.00 hrs 0.00 nm 35.89 gal 480.31 gal/hr 0.00 gal/nm 0 msl 0 kts
Thu, Jun 27, 2019 EDFC EDFZ 19:30 20:05 0.57 hrs 0.38 hrs 49.15 nm 5.70 gal 9.97 gal/hr 0.12 gal/nm 3015 msl 126 kts
Thu, Jun 27, 2019 EDFC EDFC 19:19 19:21 0.03 hrs 0.00 hrs 0.00 nm 37.69 gal 1140.20 gal/hr 0.00 gal/nm 0 msl 0 kts
Thu, Jun 27, 2019 EDFC EDFC 09:53 10:05 0.19 hrs 0.00 hrs 0.00 nm 0.76 gal 3.94 gal/hr 0.00 gal/nm 0 msl 0 kts
Thu, Jun 27, 2019 EDFC EDFC 07:16 07:19 0.05 hrs 0.00 hrs 0.00 nm 0.19 gal 3.76 gal/hr 0.00 gal/nm 0 msl 0 kts
Thu, Jun 27, 2019 EDFC EDFC 07:12 07:15 0.04 hrs 0.00 hrs 0.00 nm 0.10 gal 2.42 gal/hr 0.00 gal/nm 0 msl 0 kts
Wed, Jun 26, 2019 EDMB EDFC 13:22 14:28 1.09 hrs 0.94 hrs 127.23 nm 12.83 gal 11.73 gal/hr 0.10 gal/nm 6015 msl 134 kts
Wed, Jun 26, 2019 EDFC EDMB 09:22 10:28 1.09 hrs 0.93 hrs 123.85 nm 13.06 gal 12.03 gal/hr 0.11 gal/nm 6011 msl 131 kts
Wed, Jun 26, 2019 EDFC EDFC 09:09 09:15 0.09 hrs 0.00 hrs 0.00 nm 0.22 gal 2.44 gal/hr 0.00 gal/nm 0 msl 0 kts
Wed, Jun 26, 2019     09:01 09:01 0.01 hrs 0.00 hrs 0.00 nm 0.08 gal 8.00 gal/hr 0.00 gal/nm 0 msl 0 kts
Tue, Jun 25, 2019 EDWY EDFC 17:19 19:20 1.99 hrs 1.83 hrs 240.28 nm 22.46 gal 11.28 gal/hr 0.09 gal/nm 5569 msl 129 kts
Tue, Jun 25, 2019 EDWY EDWY 17:00 17:02 0.03 hrs 0.00 hrs 0.00 nm 0.02 gal 0.51 gal/hr 0.00 gal/nm 0 msl 0 kts
Tue, Jun 25, 2019     16:52 16:53 0 hrs 0.00 hrs 0.00 nm 0.00 gal 0.00 gal/hr 0.00 gal/nm 0 msl 0 kts
Tue, Jun 25, 2019 EDWY EDWY 16:46 16:51 0.08 hrs 0.00 hrs 0.00 nm 0.09 gal 1.14 gal/hr 0.00 gal/nm 0 msl 0 kts
Tue, Jun 25, 2019 EDFC EDWY 08:56 10:49 1.84 hrs 1.66 hrs 253.03 nm 20.88 gal 11.35 gal/hr 0.08 gal/nm 7167 msl 151 kts
Tue, Jun 25, 2019 EDFC EDFC 08:40 08:45 0.08 hrs 0.00 hrs 0.00 nm 0.17 gal 2.19 gal/hr 0.00 gal/nm 0 msl 0 kts
Tue, Jun 25, 2019     08:30 08:32 0.02 hrs 0.00 hrs 0.00 nm 0.09 gal 4.05 gal/hr 0.00 gal/nm 0 msl 0 kts
Mon, Jun 24, 2019     17:47 17:47 0 hrs 0.00 hrs 0.00 nm 0.01 gal 3.60 gal/hr 0.00 gal/nm 0 msl 0 kts
Mon, Jun 24, 2019     17:45 17:47 0.02 hrs 0.00 hrs 0.00 nm 1.06 gal 50.88 gal/hr 0.00 gal/nm 0 msl 0 kts
Mon, Jun 24, 2019 EDFB EDFC 16:10 16:45 0.58 hrs 0.32 hrs 33.68 nm 4.50 gal 7.82 gal/hr 0.13 gal/nm 2029 msl 103 kts
Mon, Jun 24, 2019 EDFC EDFB 14:22 15:46 1.38 hrs 1.20 hrs 139.01 nm 14.49 gal 10.48 gal/hr 0.10 gal/nm 4656 msl 114 kts
Mon, Jun 24, 2019 EDFC EDFC 13:43 14:09 0.43 hrs 0.00 hrs 0.00 nm 0.84 gal 1.94 gal/hr 0.00 gal/nm 0 msl 0 kts
Mon, Jun 24, 2019     13:31 13:33 0.02 hrs 0.00 hrs 0.00 nm 23.11 gal 1320.57 gal/hr 0.00 gal/nm 0 msl 0 kts
Mon, Jun 24, 2019 ETHN EDFC 12:22 13:07 0.74 hrs 0.52 hrs 66.73 nm 6.75 gal 9.09 gal/hr 0.10 gal/nm 8011 msl 127 kts
Mon, Jun 24, 2019 EDFC ETHN 10:11 11:50 1.63 hrs 1.19 hrs 136.01 nm 15.80 gal 9.73 gal/hr 0.12 gal/nm 7014 msl 112 kts
Mon, Jun 24, 2019     09:55 09:56 0.01 hrs 0.00 hrs 0.00 nm 0.12 gal 12.34 gal/hr 0.00 gal/nm 0 msl 0 kts
Mon, Jun 24, 2019     09:18 09:19 0.02 hrs 0.00 hrs 0.00 nm 35.82 gal 1653.23 gal/hr 0.00 gal/nm 0 msl 0 kts
Thu, Jun 20, 2019 EDFV EDFC 14:11 14:44 0.53 hrs 0.34 hrs 45.12 nm 5.09 gal 9.64 gal/hr 0.11 gal/nm 2621 msl 131 kts
Thu, Jun 20, 2019 EDFC EDFV 09:55 10:33 0.62 hrs 0.37 hrs 42.77 nm 5.52 gal 8.95 gal/hr 0.13 gal/nm 3230 msl 113 kts
Thu, Jun 20, 2019     09:44 09:45 0.03 hrs 0.00 hrs 0.00 nm 0.00 gal 0.00 gal/hr 0.00 gal/nm 0 msl 0 kts
Tue, Jun 18, 2019 EDFC EDFC 09:50 09:54 0.06 hrs 0.00 hrs 0.00 nm 0.14 gal 2.18 gal/hr 0.00 gal/nm 0 msl 0 kts
Tue, Jun 18, 2019 EDFC EDFC 09:42 09:45 0.06 hrs 0.00 hrs 0.00 nm 0.12 gal 2.08 gal/hr 0.00 gal/nm 0 msl 0 kts
Mon, Jun 17, 2019 EDFC EDFC 18:00 19:19 1.3 hrs 1.13 hrs 153.79 nm 16.22 gal 12.49 gal/hr 0.11 gal/nm 5015 msl 134 kts
Mon, Jun 17, 2019     17:47 17:47 0 hrs 0.00 hrs 0.00 nm 0.00 gal 0.00 gal/hr 0.00 gal/nm 0 msl 0 kts
Mon, Jun 17, 2019 EDFC EDFC 12:49 14:51 2.01 hrs 1.55 hrs 192.24 nm 19.99 gal 9.96 gal/hr 0.10 gal/nm 5687 msl 122 kts
Mon, Jun 17, 2019     12:13 12:15 0.03 hrs 0.00 hrs 0.00 nm 31.76 gal 1078.64 gal/hr 0.00 gal/nm 0 msl 0 kts
Mon, Jun 17, 2019     08:25 08:28 0.06 hrs 0.00 hrs 0.00 nm 0.00 gal 0.00 gal/hr 0.00 gal/nm 0 msl 0 kts
Sat, Jun 15, 2019 EDFC EDFC 17:36 17:41 0.08 hrs 0.00 hrs 0.00 nm 0.18 gal 2.25 gal/hr 0.00 gal/nm 0 msl 0 kts
Sat, Jun 15, 2019 EHTX EDFC 15:20 17:20 1.98 hrs 1.74 hrs 254.31 nm 23.66 gal 11.98 gal/hr 0.09 gal/nm 7050 msl 144 kts
Sat, Jun 15, 2019     15:09 15:10 0.01 hrs 0.00 hrs 0.00 nm 41.46 gal 2985.12 gal/hr 0.00 gal/nm 0 msl 0 kts
Sat, Jun 15, 2019 EHTX EHTX 12:38 12:43 0.08 hrs 0.00 hrs 0.00 nm 0.22 gal 2.63 gal/hr 0.00 gal/nm 0 msl 0 kts
Sat, Jun 15, 2019 EHTX EHTX 12:15 12:21 0.11 hrs 0.00 hrs 0.00 nm 0.25 gal 2.34 gal/hr 0.00 gal/nm 0 msl 0 kts
Fri, Jun 14, 2019 EDXB EHTX 16:59 18:39 1.64 hrs 1.38 hrs 172.93 nm 18.89 gal 11.55 gal/hr 0.11 gal/nm 4018 msl 124 kts
Fri, Jun 14, 2019 EDXF EDXB 14:28 15:07 0.65 hrs 0.41 hrs 45.47 nm 5.58 gal 8.57 gal/hr 0.12 gal/nm 2030 msl 109 kts
Fri, Jun 14, 2019 EDXF EDXF 13:54 13:57 0.05 hrs 0.00 hrs 0.00 nm 0.11 gal 2.18 gal/hr 0.00 gal/nm 0 msl 0 kts
Fri, Jun 14, 2019     13:34 13:34 0 hrs 0.00 hrs 0.00 nm 0.00 gal 0.00 gal/hr 0.00 gal/nm 0 msl 0 kts
Fri, Jun 14, 2019 EKTD EDXF 13:02 13:32 0.49 hrs 0.24 hrs 24.40 nm 3.72 gal 7.55 gal/hr 0.15 gal/nm 1591 msl 100 kts
Fri, Jun 14, 2019 EKAE EKTD 11:28 12:19 0.84 hrs 0.63 hrs 77.77 nm 8.19 gal 9.74 gal/hr 0.11 gal/nm 2102 msl 122 kts
Fri, Jun 14, 2019     10:27 10:28 0.01 hrs 0.00 hrs 0.00 nm 25.95 gal 1796.54 gal/hr 0.00 gal/nm 0 msl 0 kts
Thu, Jun 13, 2019 EKMB EKAE 15:33 16:15 0.7 hrs 0.46 hrs 53.69 nm 5.82 gal 8.27 gal/hr 0.11 gal/nm 1182 msl 114 kts
Thu, Jun 13, 2019 EKMB EKMB 14:18 14:20 0.03 hrs 0.00 hrs 0.00 nm 0.04 gal 1.21 gal/hr 0.00 gal/nm 0 msl 0 kts
Thu, Jun 13, 2019 EKRN EKMB 12:24 14:14 1.79 hrs 1.46 hrs 176.16 nm 17.82 gal 9.93 gal/hr 0.10 gal/nm 3013 msl 119 kts
Thu, Jun 13, 2019 EKRN EKRN 12:09 12:10 0.02 hrs 0.00 hrs 0.00 nm 31.61 gal 1458.92 gal/hr 0.00 gal/nm 0 msl 0 kts
Wed, Jun 12, 2019 EDBH EKRN 15:39 16:41 1 hrs 0.67 hrs 89.52 nm 9.02 gal 8.99 gal/hr 0.10 gal/nm 7011 msl 131 kts
Wed, Jun 12, 2019 EDFC EDBH 10:31 13:10 2.61 hrs 2.28 hrs 327.39 nm 28.34 gal 10.85 gal/hr 0.09 gal/nm 9021 msl 141 kts
Wed, Jun 12, 2019 EDFC EDFC 09:26 09:31 0.07 hrs 0.00 hrs 0.00 nm 0.18 gal 2.53 gal/hr 0.00 gal/nm 0 msl 0 kts
Wed, Jun 12, 2019 EDFC EDFC 08:41 08:44 0.05 hrs 0.00 hrs 0.00 nm 37.50 gal 721.93 gal/hr 0.00 gal/nm 0 msl 0 kts
Tue, Jun 11, 2019 EDFC EDFC 16:02 16:08 0.09 hrs 0.00 hrs 0.00 nm 1.02 gal 11.37 gal/hr 0.00 gal/nm 0 msl 0 kts
Tue, Jun 11, 2019 EDFC EDFC 14:08 16:01 1.85 hrs 1.03 hrs 113.51 nm 13.51 gal 7.29 gal/hr 0.12 gal/nm 3521 msl 108 kts
Tue, Jun 11, 2019     13:23 13:27 0.06 hrs 0.00 hrs 0.00 nm 49.59 gal 786.45 gal/hr 0.00 gal/nm 0 msl 0 kts
Tue, Jun 11, 2019 EDFC EDFC 10:44 10:47 0.04 hrs 0.00 hrs 0.00 nm 0.08 gal 2.07 gal/hr 0.00 gal/nm 0 msl 0 kts
Tue, Jun 11, 2019 EDFC EDFC 10:35 10:37 0.04 hrs 0.00 hrs 0.00 nm 0.12 gal 2.63 gal/hr 0.00 gal/nm 0 msl 0 kts
Sat, Jun 8, 2019 EDMK EDFC 12:16 13:30 1.22 hrs 1.09 hrs 158.83 nm 15.27 gal 12.50 gal/hr 0.10 gal/nm 8022 msl 143 kts
Sat, Jun 8, 2019 EDFC EDMK 09:28 10:45 1.26 hrs 1.11 hrs 150.37 nm 15.68 gal 12.41 gal/hr 0.10 gal/nm 4625 msl 133 kts
Thu, Jun 6, 2019 EDFC EDFC 19:06 19:44 0.63 hrs 0.00 hrs 0.09 nm 28.69 gal 45.36 gal/hr 318.78 gal/nm 590 msl 46 kts
Thu, Jun 6, 2019     18:36 18:41 0.09 hrs 0.00 hrs 0.00 nm 29.24 gal 338.47 gal/hr 0.00 gal/nm 0 msl 0 kts
Thu, Jun 6, 2019 EDFC EDFC 10:03 10:06 0.04 hrs 0.00 hrs 0.00 nm 0.07 gal 1.85 gal/hr 0.00 gal/nm 0 msl 0 kts
Thu, Jun 6, 2019 EDFC EDFC 09:55 09:58 0.04 hrs 0.00 hrs 0.00 nm 0.12 gal